<?xml version="1.0" encoding="UTF-8" standalone="no" ?>
<gpx xmlns="http://www.topografix.com/GPX/1/1" xmlns:xsi="http://www.w3.org/2001/XMLSchema-instance" xsi:schemaLocation="http://www.topografix.com/GPX/1/1 http://www.topografix.com/GPX/1/1/gpx.xsd" version="1.1" creator="VisuGPX - https://www.visugpx.com">
  <metadata>
    <name>Montverdun-Montbrison</name>
    <desc><![CDATA[Chemin de Compostelle 2016 : Montverdun-Montbrison]]></desc>
  </metadata>
  <trk>
    <name><![CDATA[32 Montverdun - Montbrizon]]></name>
    <trkseg>
      <trkpt lat="45.71772" lon="4.06607">
        <ele>411</ele>
        <time>2016-04-23T06:44:12Z</time>
      </trkpt>
      <trkpt lat="45.71767" lon="4.06607">
        <ele>411</ele>
        <time>2016-04-23T06:44:20Z</time>
      </trkpt>
      <trkpt lat="45.71763" lon="4.06611">
        <ele>411</ele>
        <time>2016-04-23T06:44:25Z</time>
      </trkpt>
      <trkpt lat="45.71759" lon="4.06612">
        <ele>411</ele>
        <time>2016-04-23T06:44:37Z</time>
      </trkpt>
      <trkpt lat="45.71761" lon="4.06605">
        <ele>410</ele>
        <time>2016-04-23T06:44:41Z</time>
      </trkpt>
      <trkpt lat="45.71771" lon="4.06577">
        <ele>404</ele>
        <time>2016-04-23T06:44:57Z</time>
      </trkpt>
      <trkpt lat="45.71767" lon="4.06572">
        <ele>403</ele>
        <time>2016-04-23T06:45:02Z</time>
      </trkpt>
      <trkpt lat="45.71763" lon="4.06573">
        <ele>402</ele>
        <time>2016-04-23T06:45:06Z</time>
      </trkpt>
      <trkpt lat="45.71728" lon="4.06609">
        <ele>396</ele>
        <time>2016-04-23T06:45:37Z</time>
      </trkpt>
      <trkpt lat="45.7172" lon="4.06617">
        <ele>396</ele>
        <time>2016-04-23T06:45:43Z</time>
      </trkpt>
      <trkpt lat="45.71718" lon="4.06619">
        <ele>396</ele>
        <time>2016-04-23T06:45:44Z</time>
      </trkpt>
      <trkpt lat="45.71711" lon="4.06624">
        <ele>396</ele>
        <time>2016-04-23T06:45:49Z</time>
      </trkpt>
      <trkpt lat="45.71709" lon="4.0662">
        <ele>397</ele>
        <time>2016-04-23T06:45:57Z</time>
      </trkpt>
      <trkpt lat="45.71705" lon="4.06624">
        <ele>396</ele>
        <time>2016-04-23T06:46:03Z</time>
      </trkpt>
      <trkpt lat="45.71673" lon="4.0666">
        <ele>388</ele>
        <time>2016-04-23T06:46:35Z</time>
      </trkpt>
      <trkpt lat="45.71649" lon="4.06671">
        <ele>385</ele>
        <time>2016-04-23T06:46:53Z</time>
      </trkpt>
      <trkpt lat="45.7164" lon="4.06667">
        <ele>389</ele>
        <time>2016-04-23T06:47:02Z</time>
      </trkpt>
      <trkpt lat="45.71635" lon="4.06663">
        <ele>389</ele>
        <time>2016-04-23T06:47:07Z</time>
      </trkpt>
      <trkpt lat="45.71631" lon="4.06659">
        <ele>389</ele>
        <time>2016-04-23T06:47:13Z</time>
      </trkpt>
      <trkpt lat="45.71597" lon="4.0665">
        <ele>385</ele>
        <time>2016-04-23T06:47:43Z</time>
      </trkpt>
      <trkpt lat="45.71593" lon="4.06645">
        <ele>384</ele>
        <time>2016-04-23T06:47:49Z</time>
      </trkpt>
      <trkpt lat="45.71559" lon="4.06635">
        <ele>379</ele>
        <time>2016-04-23T06:48:20Z</time>
      </trkpt>
      <trkpt lat="45.71554" lon="4.06636">
        <ele>378</ele>
        <time>2016-04-23T06:48:26Z</time>
      </trkpt>
      <trkpt lat="45.71516" lon="4.0662">
        <ele>377</ele>
        <time>2016-04-23T06:49:02Z</time>
      </trkpt>
      <trkpt lat="45.71511" lon="4.06619">
        <ele>376</ele>
        <time>2016-04-23T06:49:09Z</time>
      </trkpt>
      <trkpt lat="45.71489" lon="4.06623">
        <ele>375</ele>
        <time>2016-04-23T06:49:25Z</time>
      </trkpt>
      <trkpt lat="45.7146" lon="4.06643">
        <ele>374</ele>
        <time>2016-04-23T06:49:50Z</time>
      </trkpt>
      <trkpt lat="45.71453" lon="4.0666">
        <ele>372</ele>
        <time>2016-04-23T06:50:08Z</time>
      </trkpt>
      <trkpt lat="45.71446" lon="4.06671">
        <ele>372</ele>
        <time>2016-04-23T06:50:16Z</time>
      </trkpt>
      <trkpt lat="45.71433" lon="4.06683">
        <ele>372</ele>
        <time>2016-04-23T06:50:29Z</time>
      </trkpt>
      <trkpt lat="45.7141" lon="4.0673">
        <ele>370</ele>
        <time>2016-04-23T06:51:01Z</time>
      </trkpt>
      <trkpt lat="45.71387" lon="4.06775">
        <ele>370</ele>
        <time>2016-04-23T06:51:34Z</time>
      </trkpt>
      <trkpt lat="45.71362" lon="4.06821">
        <ele>371</ele>
        <time>2016-04-23T06:52:07Z</time>
      </trkpt>
      <trkpt lat="45.71337" lon="4.06869">
        <ele>372</ele>
        <time>2016-04-23T06:52:42Z</time>
      </trkpt>
      <trkpt lat="45.71304" lon="4.06904">
        <ele>372</ele>
        <time>2016-04-23T06:53:16Z</time>
      </trkpt>
      <trkpt lat="45.71266" lon="4.0692">
        <ele>373</ele>
        <time>2016-04-23T06:53:49Z</time>
      </trkpt>
      <trkpt lat="45.71246" lon="4.06926">
        <ele>373</ele>
        <time>2016-04-23T06:54:05Z</time>
      </trkpt>
      <trkpt lat="45.7124" lon="4.06927">
        <ele>373</ele>
        <time>2016-04-23T06:54:10Z</time>
      </trkpt>
      <trkpt lat="45.71235" lon="4.06927">
        <ele>373</ele>
        <time>2016-04-23T06:54:15Z</time>
      </trkpt>
      <trkpt lat="45.71231" lon="4.06929">
        <ele>372</ele>
        <time>2016-04-23T06:54:20Z</time>
      </trkpt>
      <trkpt lat="45.71222" lon="4.06936">
        <ele>370</ele>
        <time>2016-04-23T06:54:28Z</time>
      </trkpt>
      <trkpt lat="45.71218" lon="4.06939">
        <ele>370</ele>
        <time>2016-04-23T06:54:32Z</time>
      </trkpt>
      <trkpt lat="45.71182" lon="4.06966">
        <ele>372</ele>
        <time>2016-04-23T06:55:04Z</time>
      </trkpt>
      <trkpt lat="45.71148" lon="4.06992">
        <ele>372</ele>
        <time>2016-04-23T06:55:37Z</time>
      </trkpt>
      <trkpt lat="45.71117" lon="4.07016">
        <ele>372</ele>
        <time>2016-04-23T06:56:07Z</time>
      </trkpt>
      <trkpt lat="45.71082" lon="4.07045">
        <ele>374</ele>
        <time>2016-04-23T06:56:39Z</time>
      </trkpt>
      <trkpt lat="45.71046" lon="4.07077">
        <ele>375</ele>
        <time>2016-04-23T06:57:12Z</time>
      </trkpt>
      <trkpt lat="45.71017" lon="4.07105">
        <ele>376</ele>
        <time>2016-04-23T06:57:42Z</time>
      </trkpt>
      <trkpt lat="45.71004" lon="4.07118">
        <ele>377</ele>
        <time>2016-04-23T06:57:54Z</time>
      </trkpt>
      <trkpt lat="45.70982" lon="4.07133">
        <ele>376</ele>
        <time>2016-04-23T06:58:17Z</time>
      </trkpt>
      <trkpt lat="45.70943" lon="4.07152">
        <ele>377</ele>
        <time>2016-04-23T06:58:49Z</time>
      </trkpt>
      <trkpt lat="45.70909" lon="4.07167">
        <ele>379</ele>
        <time>2016-04-23T06:59:22Z</time>
      </trkpt>
      <trkpt lat="45.70875" lon="4.07183">
        <ele>379</ele>
        <time>2016-04-23T06:59:52Z</time>
      </trkpt>
      <trkpt lat="45.70862" lon="4.07191">
        <ele>380</ele>
        <time>2016-04-23T07:00:04Z</time>
      </trkpt>
      <trkpt lat="45.70858" lon="4.07195">
        <ele>380</ele>
        <time>2016-04-23T07:00:11Z</time>
      </trkpt>
      <trkpt lat="45.7085" lon="4.07204">
        <ele>380</ele>
        <time>2016-04-23T07:00:20Z</time>
      </trkpt>
      <trkpt lat="45.70822" lon="4.07231">
        <ele>379</ele>
        <time>2016-04-23T07:00:50Z</time>
      </trkpt>
      <trkpt lat="45.70799" lon="4.07261">
        <ele>382</ele>
        <time>2016-04-23T07:01:20Z</time>
      </trkpt>
      <trkpt lat="45.70774" lon="4.07292">
        <ele>385</ele>
        <time>2016-04-23T07:01:54Z</time>
      </trkpt>
      <trkpt lat="45.70771" lon="4.07296">
        <ele>385</ele>
        <time>2016-04-23T07:01:58Z</time>
      </trkpt>
      <trkpt lat="45.70745" lon="4.0733">
        <ele>388</ele>
        <time>2016-04-23T07:02:31Z</time>
      </trkpt>
      <trkpt lat="45.70721" lon="4.07355">
        <ele>390</ele>
        <time>2016-04-23T07:03:12Z</time>
      </trkpt>
      <trkpt lat="45.7069" lon="4.0739">
        <ele>392</ele>
        <time>2016-04-23T07:03:46Z</time>
      </trkpt>
      <trkpt lat="45.70686" lon="4.07395">
        <ele>393</ele>
        <time>2016-04-23T07:03:51Z</time>
      </trkpt>
      <trkpt lat="45.70682" lon="4.07399">
        <ele>393</ele>
        <time>2016-04-23T07:03:57Z</time>
      </trkpt>
      <trkpt lat="45.70654" lon="4.0744">
        <ele>396</ele>
        <time>2016-04-23T07:04:31Z</time>
      </trkpt>
      <trkpt lat="45.70627" lon="4.07484">
        <ele>397</ele>
        <time>2016-04-23T07:05:04Z</time>
      </trkpt>
      <trkpt lat="45.70621" lon="4.07495">
        <ele>397</ele>
        <time>2016-04-23T07:05:12Z</time>
      </trkpt>
      <trkpt lat="45.70601" lon="4.07527">
        <ele>395</ele>
        <time>2016-04-23T07:05:43Z</time>
      </trkpt>
      <trkpt lat="45.70571" lon="4.07557">
        <ele>391</ele>
        <time>2016-04-23T07:06:15Z</time>
      </trkpt>
      <trkpt lat="45.70563" lon="4.07565">
        <ele>391</ele>
        <time>2016-04-23T07:06:24Z</time>
      </trkpt>
      <trkpt lat="45.70559" lon="4.0757">
        <ele>392</ele>
        <time>2016-04-23T07:06:28Z</time>
      </trkpt>
      <trkpt lat="45.7053" lon="4.07597">
        <ele>391</ele>
        <time>2016-04-23T07:07:00Z</time>
      </trkpt>
      <trkpt lat="45.70526" lon="4.07601">
        <ele>391</ele>
        <time>2016-04-23T07:07:05Z</time>
      </trkpt>
      <trkpt lat="45.70495" lon="4.07624">
        <ele>392</ele>
        <time>2016-04-23T07:07:33Z</time>
      </trkpt>
      <trkpt lat="45.70468" lon="4.07644">
        <ele>390</ele>
        <time>2016-04-23T07:08:05Z</time>
      </trkpt>
      <trkpt lat="45.70446" lon="4.07685">
        <ele>387</ele>
        <time>2016-04-23T07:08:37Z</time>
      </trkpt>
      <trkpt lat="45.70432" lon="4.07706">
        <ele>387</ele>
        <time>2016-04-23T07:08:56Z</time>
      </trkpt>
      <trkpt lat="45.70407" lon="4.07749">
        <ele>386</ele>
        <time>2016-04-23T07:09:28Z</time>
      </trkpt>
      <trkpt lat="45.70404" lon="4.07755">
        <ele>386</ele>
        <time>2016-04-23T07:09:33Z</time>
      </trkpt>
      <trkpt lat="45.70398" lon="4.07766">
        <ele>387</ele>
        <time>2016-04-23T07:09:42Z</time>
      </trkpt>
      <trkpt lat="45.7039" lon="4.07782">
        <ele>387</ele>
        <time>2016-04-23T07:09:53Z</time>
      </trkpt>
      <trkpt lat="45.70386" lon="4.07788">
        <ele>389</ele>
        <time>2016-04-23T07:09:57Z</time>
      </trkpt>
      <trkpt lat="45.70379" lon="4.07806">
        <ele>388</ele>
        <time>2016-04-23T07:10:09Z</time>
      </trkpt>
      <trkpt lat="45.70375" lon="4.07811">
        <ele>388</ele>
        <time>2016-04-23T07:10:14Z</time>
      </trkpt>
      <trkpt lat="45.70349" lon="4.07853">
        <ele>390</ele>
        <time>2016-04-23T07:10:45Z</time>
      </trkpt>
      <trkpt lat="45.7034" lon="4.07871">
        <ele>390</ele>
        <time>2016-04-23T07:10:57Z</time>
      </trkpt>
      <trkpt lat="45.70336" lon="4.07875">
        <ele>391</ele>
        <time>2016-04-23T07:11:01Z</time>
      </trkpt>
      <trkpt lat="45.70329" lon="4.07885">
        <ele>391</ele>
        <time>2016-04-23T07:11:10Z</time>
      </trkpt>
      <trkpt lat="45.70325" lon="4.07884">
        <ele>391</ele>
        <time>2016-04-23T07:11:15Z</time>
      </trkpt>
      <trkpt lat="45.70316" lon="4.07875">
        <ele>391</ele>
        <time>2016-04-23T07:11:25Z</time>
      </trkpt>
      <trkpt lat="45.70313" lon="4.07869">
        <ele>390</ele>
        <time>2016-04-23T07:11:30Z</time>
      </trkpt>
      <trkpt lat="45.7031" lon="4.07863">
        <ele>390</ele>
        <time>2016-04-23T07:11:35Z</time>
      </trkpt>
      <trkpt lat="45.70307" lon="4.07858">
        <ele>391</ele>
        <time>2016-04-23T07:11:40Z</time>
      </trkpt>
      <trkpt lat="45.70293" lon="4.0785">
        <ele>391</ele>
        <time>2016-04-23T07:11:54Z</time>
      </trkpt>
      <trkpt lat="45.70285" lon="4.07846">
        <ele>392</ele>
        <time>2016-04-23T07:12:07Z</time>
      </trkpt>
      <trkpt lat="45.70277" lon="4.07839">
        <ele>393</ele>
        <time>2016-04-23T07:12:19Z</time>
      </trkpt>
      <trkpt lat="45.70259" lon="4.07833">
        <ele>396</ele>
        <time>2016-04-23T07:12:35Z</time>
      </trkpt>
      <trkpt lat="45.70236" lon="4.07808">
        <ele>399</ele>
        <time>2016-04-23T07:13:04Z</time>
      </trkpt>
      <trkpt lat="45.70222" lon="4.0779">
        <ele>398</ele>
        <time>2016-04-23T07:13:19Z</time>
      </trkpt>
      <trkpt lat="45.7021" lon="4.07779">
        <ele>399</ele>
        <time>2016-04-23T07:13:31Z</time>
      </trkpt>
      <trkpt lat="45.70205" lon="4.07782">
        <ele>399</ele>
        <time>2016-04-23T07:13:39Z</time>
      </trkpt>
      <trkpt lat="45.70201" lon="4.07785">
        <ele>400</ele>
        <time>2016-04-23T07:13:45Z</time>
      </trkpt>
      <trkpt lat="45.70183" lon="4.0779">
        <ele>403</ele>
        <time>2016-04-23T07:14:26Z</time>
      </trkpt>
      <trkpt lat="45.70174" lon="4.0779">
        <ele>406</ele>
        <time>2016-04-23T07:14:33Z</time>
      </trkpt>
      <trkpt lat="45.70162" lon="4.07781">
        <ele>409</ele>
        <time>2016-04-23T07:14:48Z</time>
      </trkpt>
      <trkpt lat="45.70159" lon="4.07775">
        <ele>411</ele>
        <time>2016-04-23T07:14:55Z</time>
      </trkpt>
      <trkpt lat="45.70142" lon="4.07762">
        <ele>414</ele>
        <time>2016-04-23T07:15:16Z</time>
      </trkpt>
      <trkpt lat="45.70111" lon="4.0774">
        <ele>417</ele>
        <time>2016-04-23T07:15:51Z</time>
      </trkpt>
      <trkpt lat="45.70086" lon="4.07729">
        <ele>421</ele>
        <time>2016-04-23T07:16:23Z</time>
      </trkpt>
      <trkpt lat="45.70081" lon="4.07726">
        <ele>421</ele>
        <time>2016-04-23T07:16:29Z</time>
      </trkpt>
      <trkpt lat="45.70071" lon="4.07723">
        <ele>419</ele>
        <time>2016-04-23T07:16:38Z</time>
      </trkpt>
      <trkpt lat="45.70066" lon="4.07721">
        <ele>419</ele>
        <time>2016-04-23T07:16:45Z</time>
      </trkpt>
      <trkpt lat="45.70063" lon="4.07719">
        <ele>420</ele>
        <time>2016-04-23T07:16:53Z</time>
      </trkpt>
      <trkpt lat="45.70058" lon="4.07718">
        <ele>421</ele>
        <time>2016-04-23T07:16:58Z</time>
      </trkpt>
      <trkpt lat="45.70054" lon="4.07714">
        <ele>421</ele>
        <time>2016-04-23T07:17:03Z</time>
      </trkpt>
      <trkpt lat="45.70051" lon="4.07708">
        <ele>422</ele>
        <time>2016-04-23T07:17:09Z</time>
      </trkpt>
      <trkpt lat="45.7003" lon="4.07692">
        <ele>427</ele>
        <time>2016-04-23T07:17:45Z</time>
      </trkpt>
      <trkpt lat="45.70018" lon="4.07686">
        <ele>431</ele>
        <time>2016-04-23T07:18:15Z</time>
      </trkpt>
      <trkpt lat="45.70009" lon="4.07683">
        <ele>431</ele>
        <time>2016-04-23T07:18:29Z</time>
      </trkpt>
      <trkpt lat="45.70001" lon="4.07677">
        <ele>432</ele>
        <time>2016-04-23T07:18:41Z</time>
      </trkpt>
      <trkpt lat="45.69992" lon="4.07677">
        <ele>433</ele>
        <time>2016-04-23T07:18:51Z</time>
      </trkpt>
      <trkpt lat="45.69982" lon="4.07682">
        <ele>434</ele>
        <time>2016-04-23T07:19:02Z</time>
      </trkpt>
      <trkpt lat="45.69973" lon="4.077">
        <ele>440</ele>
        <time>2016-04-23T07:19:42Z</time>
      </trkpt>
      <trkpt lat="45.69964" lon="4.07707">
        <ele>441</ele>
        <time>2016-04-23T07:19:50Z</time>
      </trkpt>
      <trkpt lat="45.69967" lon="4.07702">
        <ele>441</ele>
        <time>2016-04-23T07:20:13Z</time>
      </trkpt>
      <trkpt lat="45.69957" lon="4.07708">
        <ele>441</ele>
        <time>2016-04-23T07:21:07Z</time>
      </trkpt>
      <trkpt lat="45.69938" lon="4.07711">
        <ele>439</ele>
        <time>2016-04-23T07:21:21Z</time>
      </trkpt>
      <trkpt lat="45.699" lon="4.07705">
        <ele>443</ele>
        <time>2016-04-23T07:21:55Z</time>
      </trkpt>
      <trkpt lat="45.69877" lon="4.07705">
        <ele>447</ele>
        <time>2016-04-23T07:22:30Z</time>
      </trkpt>
      <trkpt lat="45.69862" lon="4.07714">
        <ele>451</ele>
        <time>2016-04-23T07:23:02Z</time>
      </trkpt>
      <trkpt lat="45.69858" lon="4.07728">
        <ele>451</ele>
        <time>2016-04-23T07:23:21Z</time>
      </trkpt>
      <trkpt lat="45.69851" lon="4.07736">
        <ele>451</ele>
        <time>2016-04-23T07:23:33Z</time>
      </trkpt>
      <trkpt lat="45.69832" lon="4.07767">
        <ele>453</ele>
        <time>2016-04-23T07:24:03Z</time>
      </trkpt>
      <trkpt lat="45.69821" lon="4.0779">
        <ele>453</ele>
        <time>2016-04-23T07:24:19Z</time>
      </trkpt>
      <trkpt lat="45.69812" lon="4.07801">
        <ele>453</ele>
        <time>2016-04-23T07:24:46Z</time>
      </trkpt>
      <trkpt lat="45.69808" lon="4.07799">
        <ele>454</ele>
        <time>2016-04-23T07:25:05Z</time>
      </trkpt>
      <trkpt lat="45.69806" lon="4.07808">
        <ele>456</ele>
        <time>2016-04-23T07:25:18Z</time>
      </trkpt>
      <trkpt lat="45.69803" lon="4.07815">
        <ele>458</ele>
        <time>2016-04-23T07:25:24Z</time>
      </trkpt>
      <trkpt lat="45.69796" lon="4.07818">
        <ele>458</ele>
        <time>2016-04-23T07:25:31Z</time>
      </trkpt>
      <trkpt lat="45.69786" lon="4.07841">
        <ele>456</ele>
        <time>2016-04-23T07:25:53Z</time>
      </trkpt>
      <trkpt lat="45.69789" lon="4.07853">
        <ele>456</ele>
        <time>2016-04-23T07:26:10Z</time>
      </trkpt>
      <trkpt lat="45.69785" lon="4.07865">
        <ele>451</ele>
        <time>2016-04-23T07:26:24Z</time>
      </trkpt>
      <trkpt lat="45.69778" lon="4.0789">
        <ele>450</ele>
        <time>2016-04-23T07:26:47Z</time>
      </trkpt>
      <trkpt lat="45.69775" lon="4.07903">
        <ele>450</ele>
        <time>2016-04-23T07:26:56Z</time>
      </trkpt>
      <trkpt lat="45.69762" lon="4.07921">
        <ele>449</ele>
        <time>2016-04-23T07:27:11Z</time>
      </trkpt>
      <trkpt lat="45.69754" lon="4.07928">
        <ele>449</ele>
        <time>2016-04-23T07:27:18Z</time>
      </trkpt>
      <trkpt lat="45.69719" lon="4.0795">
        <ele>452</ele>
        <time>2016-04-23T07:27:50Z</time>
      </trkpt>
      <trkpt lat="45.69685" lon="4.07977">
        <ele>459</ele>
        <time>2016-04-23T07:28:24Z</time>
      </trkpt>
      <trkpt lat="45.69676" lon="4.07978">
        <ele>460</ele>
        <time>2016-04-23T07:28:32Z</time>
      </trkpt>
      <trkpt lat="45.69666" lon="4.07977">
        <ele>459</ele>
        <time>2016-04-23T07:28:40Z</time>
      </trkpt>
      <trkpt lat="45.69657" lon="4.07972">
        <ele>459</ele>
        <time>2016-04-23T07:28:49Z</time>
      </trkpt>
      <trkpt lat="45.69649" lon="4.07966">
        <ele>460</ele>
        <time>2016-04-23T07:28:56Z</time>
      </trkpt>
      <trkpt lat="45.69645" lon="4.07964">
        <ele>460</ele>
        <time>2016-04-23T07:29:00Z</time>
      </trkpt>
      <trkpt lat="45.6964" lon="4.07959">
        <ele>460</ele>
        <time>2016-04-23T07:29:04Z</time>
      </trkpt>
      <trkpt lat="45.69635" lon="4.07948">
        <ele>460</ele>
        <time>2016-04-23T07:29:12Z</time>
      </trkpt>
      <trkpt lat="45.69618" lon="4.07915">
        <ele>462</ele>
        <time>2016-04-23T07:29:42Z</time>
      </trkpt>
      <trkpt lat="45.69609" lon="4.07907">
        <ele>462</ele>
        <time>2016-04-23T07:29:53Z</time>
      </trkpt>
      <trkpt lat="45.69605" lon="4.07906">
        <ele>462</ele>
        <time>2016-04-23T07:29:59Z</time>
      </trkpt>
      <trkpt lat="45.69586" lon="4.07904">
        <ele>460</ele>
        <time>2016-04-23T07:30:21Z</time>
      </trkpt>
      <trkpt lat="45.69562" lon="4.0789">
        <ele>455</ele>
        <time>2016-04-23T07:30:52Z</time>
      </trkpt>
      <trkpt lat="45.69547" lon="4.07887">
        <ele>454</ele>
        <time>2016-04-23T07:31:06Z</time>
      </trkpt>
      <trkpt lat="45.69531" lon="4.07872">
        <ele>448</ele>
        <time>2016-04-23T07:31:28Z</time>
      </trkpt>
      <trkpt lat="45.69523" lon="4.07872">
        <ele>445</ele>
        <time>2016-04-23T07:31:44Z</time>
      </trkpt>
      <trkpt lat="45.69519" lon="4.07878">
        <ele>443</ele>
        <time>2016-04-23T07:31:55Z</time>
      </trkpt>
      <trkpt lat="45.69501" lon="4.07909">
        <ele>435</ele>
        <time>2016-04-23T07:32:26Z</time>
      </trkpt>
      <trkpt lat="45.69493" lon="4.07916">
        <ele>433</ele>
        <time>2016-04-23T07:32:40Z</time>
      </trkpt>
      <trkpt lat="45.69489" lon="4.07919">
        <ele>434</ele>
        <time>2016-04-23T07:32:48Z</time>
      </trkpt>
      <trkpt lat="45.69459" lon="4.07928">
        <ele>431</ele>
        <time>2016-04-23T07:33:19Z</time>
      </trkpt>
      <trkpt lat="45.69433" lon="4.0793">
        <ele>429</ele>
        <time>2016-04-23T07:33:40Z</time>
      </trkpt>
      <trkpt lat="45.69429" lon="4.07935">
        <ele>428</ele>
        <time>2016-04-23T07:33:44Z</time>
      </trkpt>
      <trkpt lat="45.69394" lon="4.07962">
        <ele>427</ele>
        <time>2016-04-23T07:34:19Z</time>
      </trkpt>
      <trkpt lat="45.69385" lon="4.07964">
        <ele>427</ele>
        <time>2016-04-23T07:34:25Z</time>
      </trkpt>
      <trkpt lat="45.69375" lon="4.07968">
        <ele>426</ele>
        <time>2016-04-23T07:34:32Z</time>
      </trkpt>
      <trkpt lat="45.69356" lon="4.07972">
        <ele>426</ele>
        <time>2016-04-23T07:34:49Z</time>
      </trkpt>
      <trkpt lat="45.69338" lon="4.07978">
        <ele>424</ele>
        <time>2016-04-23T07:35:04Z</time>
      </trkpt>
      <trkpt lat="45.69329" lon="4.07983">
        <ele>424</ele>
        <time>2016-04-23T07:35:11Z</time>
      </trkpt>
      <trkpt lat="45.69313" lon="4.07997">
        <ele>423</ele>
        <time>2016-04-23T07:35:30Z</time>
      </trkpt>
      <trkpt lat="45.69307" lon="4.07999">
        <ele>418</ele>
        <time>2016-04-23T07:35:45Z</time>
      </trkpt>
      <trkpt lat="45.693" lon="4.07997">
        <ele>417</ele>
        <time>2016-04-23T07:36:03Z</time>
      </trkpt>
      <trkpt lat="45.6929" lon="4.08005">
        <ele>413</ele>
        <time>2016-04-23T07:36:32Z</time>
      </trkpt>
      <trkpt lat="45.69286" lon="4.08018">
        <ele>412</ele>
        <time>2016-04-23T07:36:41Z</time>
      </trkpt>
      <trkpt lat="45.6928" lon="4.08027">
        <ele>413</ele>
        <time>2016-04-23T07:36:49Z</time>
      </trkpt>
      <trkpt lat="45.69246" lon="4.0807">
        <ele>412</ele>
        <time>2016-04-23T07:37:24Z</time>
      </trkpt>
      <trkpt lat="45.69239" lon="4.08079">
        <ele>412</ele>
        <time>2016-04-23T07:37:33Z</time>
      </trkpt>
      <trkpt lat="45.69224" lon="4.08098">
        <ele>412</ele>
        <time>2016-04-23T07:37:50Z</time>
      </trkpt>
      <trkpt lat="45.69213" lon="4.08112">
        <ele>410</ele>
        <time>2016-04-23T07:38:03Z</time>
      </trkpt>
      <trkpt lat="45.69205" lon="4.08121">
        <ele>409</ele>
        <time>2016-04-23T07:38:13Z</time>
      </trkpt>
      <trkpt lat="45.69198" lon="4.08131">
        <ele>408</ele>
        <time>2016-04-23T07:38:22Z</time>
      </trkpt>
      <trkpt lat="45.69194" lon="4.08135">
        <ele>405</ele>
        <time>2016-04-23T07:38:32Z</time>
      </trkpt>
      <trkpt lat="45.6918" lon="4.08147">
        <ele>402</ele>
        <time>2016-04-23T07:39:02Z</time>
      </trkpt>
      <trkpt lat="45.69166" lon="4.08155">
        <ele>401</ele>
        <time>2016-04-23T07:39:15Z</time>
      </trkpt>
      <trkpt lat="45.69131" lon="4.0816">
        <ele>404</ele>
        <time>2016-04-23T07:39:46Z</time>
      </trkpt>
      <trkpt lat="45.69116" lon="4.08162">
        <ele>405</ele>
        <time>2016-04-23T07:39:59Z</time>
      </trkpt>
      <trkpt lat="45.69085" lon="4.08161">
        <ele>409</ele>
        <time>2016-04-23T07:40:30Z</time>
      </trkpt>
      <trkpt lat="45.69066" lon="4.08159">
        <ele>415</ele>
        <time>2016-04-23T07:40:55Z</time>
      </trkpt>
      <trkpt lat="45.69061" lon="4.08157">
        <ele>415</ele>
        <time>2016-04-23T07:41:00Z</time>
      </trkpt>
      <trkpt lat="45.69056" lon="4.08155">
        <ele>414</ele>
        <time>2016-04-23T07:41:05Z</time>
      </trkpt>
      <trkpt lat="45.69051" lon="4.08153">
        <ele>414</ele>
        <time>2016-04-23T07:41:10Z</time>
      </trkpt>
      <trkpt lat="45.6902" lon="4.08129">
        <ele>421</ele>
        <time>2016-04-23T07:41:44Z</time>
      </trkpt>
      <trkpt lat="45.69009" lon="4.08114">
        <ele>423</ele>
        <time>2016-04-23T07:41:59Z</time>
      </trkpt>
      <trkpt lat="45.69002" lon="4.08105">
        <ele>424</ele>
        <time>2016-04-23T07:42:07Z</time>
      </trkpt>
      <trkpt lat="45.68977" lon="4.08088">
        <ele>426</ele>
        <time>2016-04-23T07:42:38Z</time>
      </trkpt>
      <trkpt lat="45.68973" lon="4.08085">
        <ele>427</ele>
        <time>2016-04-23T07:42:48Z</time>
      </trkpt>
      <trkpt lat="45.68974" lon="4.08077">
        <ele>426</ele>
        <time>2016-04-23T07:43:02Z</time>
      </trkpt>
      <trkpt lat="45.68975" lon="4.08068">
        <ele>427</ele>
        <time>2016-04-23T07:43:34Z</time>
      </trkpt>
      <trkpt lat="45.68975" lon="4.0806">
        <ele>426</ele>
        <time>2016-04-23T07:43:40Z</time>
      </trkpt>
      <trkpt lat="45.68973" lon="4.08032">
        <ele>427</ele>
        <time>2016-04-23T07:43:57Z</time>
      </trkpt>
      <trkpt lat="45.6897" lon="4.0801">
        <ele>427</ele>
        <time>2016-04-23T07:44:10Z</time>
      </trkpt>
      <trkpt lat="45.68969" lon="4.08002">
        <ele>426</ele>
        <time>2016-04-23T07:44:19Z</time>
      </trkpt>
      <trkpt lat="45.68967" lon="4.07995">
        <ele>426</ele>
        <time>2016-04-23T07:44:23Z</time>
      </trkpt>
      <trkpt lat="45.68958" lon="4.07978">
        <ele>427</ele>
        <time>2016-04-23T07:44:35Z</time>
      </trkpt>
      <trkpt lat="45.68955" lon="4.07973">
        <ele>428</ele>
        <time>2016-04-23T07:44:43Z</time>
      </trkpt>
      <trkpt lat="45.68948" lon="4.07963">
        <ele>429</ele>
        <time>2016-04-23T07:44:52Z</time>
      </trkpt>
      <trkpt lat="45.68933" lon="4.07944">
        <ele>429</ele>
        <time>2016-04-23T07:45:09Z</time>
      </trkpt>
      <trkpt lat="45.6892" lon="4.07925">
        <ele>431</ele>
        <time>2016-04-23T07:45:30Z</time>
      </trkpt>
      <trkpt lat="45.68915" lon="4.07921">
        <ele>430</ele>
        <time>2016-04-23T07:45:50Z</time>
      </trkpt>
      <trkpt lat="45.68912" lon="4.07915">
        <ele>430</ele>
        <time>2016-04-23T07:45:55Z</time>
      </trkpt>
      <trkpt lat="45.68908" lon="4.0791">
        <ele>431</ele>
        <time>2016-04-23T07:46:00Z</time>
      </trkpt>
      <trkpt lat="45.68897" lon="4.07897">
        <ele>431</ele>
        <time>2016-04-23T07:46:12Z</time>
      </trkpt>
      <trkpt lat="45.68885" lon="4.07873">
        <ele>430</ele>
        <time>2016-04-23T07:46:32Z</time>
      </trkpt>
      <trkpt lat="45.68859" lon="4.0784">
        <ele>431</ele>
        <time>2016-04-23T07:47:04Z</time>
      </trkpt>
      <trkpt lat="45.68831" lon="4.07818">
        <ele>432</ele>
        <time>2016-04-23T07:47:38Z</time>
      </trkpt>
      <trkpt lat="45.68829" lon="4.07815">
        <ele>432</ele>
        <time>2016-04-23T07:48:29Z</time>
      </trkpt>
      <trkpt lat="45.68825" lon="4.07814">
        <ele>432</ele>
        <time>2016-04-23T07:48:39Z</time>
      </trkpt>
      <trkpt lat="45.68819" lon="4.07808">
        <ele>432</ele>
        <time>2016-04-23T07:48:59Z</time>
      </trkpt>
      <trkpt lat="45.68803" lon="4.07803">
        <ele>434</ele>
        <time>2016-04-23T07:49:11Z</time>
      </trkpt>
      <trkpt lat="45.68802" lon="4.078">
        <ele>432</ele>
        <time>2016-04-23T07:49:50Z</time>
      </trkpt>
      <trkpt lat="45.688" lon="4.07792">
        <ele>432</ele>
        <time>2016-04-23T07:50:24Z</time>
      </trkpt>
      <trkpt lat="45.68786" lon="4.07778">
        <ele>436</ele>
        <time>2016-04-23T07:50:45Z</time>
      </trkpt>
      <trkpt lat="45.68782" lon="4.07773">
        <ele>433</ele>
        <time>2016-04-23T07:51:02Z</time>
      </trkpt>
      <trkpt lat="45.68778" lon="4.07769">
        <ele>434</ele>
        <time>2016-04-23T07:51:06Z</time>
      </trkpt>
      <trkpt lat="45.68774" lon="4.07765">
        <ele>433</ele>
        <time>2016-04-23T07:51:10Z</time>
      </trkpt>
      <trkpt lat="45.68766" lon="4.07756">
        <ele>433</ele>
        <time>2016-04-23T07:51:18Z</time>
      </trkpt>
      <trkpt lat="45.68761" lon="4.07753">
        <ele>433</ele>
        <time>2016-04-23T07:51:22Z</time>
      </trkpt>
      <trkpt lat="45.68735" lon="4.07724">
        <ele>431</ele>
        <time>2016-04-23T07:51:56Z</time>
      </trkpt>
      <trkpt lat="45.68728" lon="4.07711">
        <ele>430</ele>
        <time>2016-04-23T07:52:04Z</time>
      </trkpt>
      <trkpt lat="45.6872" lon="4.077">
        <ele>430</ele>
        <time>2016-04-23T07:52:12Z</time>
      </trkpt>
      <trkpt lat="45.68712" lon="4.0769">
        <ele>429</ele>
        <time>2016-04-23T07:52:20Z</time>
      </trkpt>
      <trkpt lat="45.68709" lon="4.07684">
        <ele>429</ele>
        <time>2016-04-23T07:52:24Z</time>
      </trkpt>
      <trkpt lat="45.68705" lon="4.07678">
        <ele>429</ele>
        <time>2016-04-23T07:52:28Z</time>
      </trkpt>
      <trkpt lat="45.68701" lon="4.07634">
        <ele>428</ele>
        <time>2016-04-23T07:52:53Z</time>
      </trkpt>
      <trkpt lat="45.687" lon="4.07626">
        <ele>427</ele>
        <time>2016-04-23T07:52:57Z</time>
      </trkpt>
      <trkpt lat="45.68698" lon="4.0762">
        <ele>427</ele>
        <time>2016-04-23T07:53:01Z</time>
      </trkpt>
      <trkpt lat="45.68693" lon="4.07608">
        <ele>427</ele>
        <time>2016-04-23T07:53:09Z</time>
      </trkpt>
      <trkpt lat="45.68691" lon="4.07602">
        <ele>428</ele>
        <time>2016-04-23T07:53:12Z</time>
      </trkpt>
      <trkpt lat="45.68688" lon="4.07596">
        <ele>428</ele>
        <time>2016-04-23T07:53:16Z</time>
      </trkpt>
      <trkpt lat="45.68685" lon="4.07591">
        <ele>427</ele>
        <time>2016-04-23T07:53:20Z</time>
      </trkpt>
      <trkpt lat="45.68676" lon="4.07584">
        <ele>427</ele>
        <time>2016-04-23T07:53:28Z</time>
      </trkpt>
      <trkpt lat="45.68662" lon="4.07585">
        <ele>426</ele>
        <time>2016-04-23T07:53:40Z</time>
      </trkpt>
      <trkpt lat="45.68657" lon="4.07587">
        <ele>426</ele>
        <time>2016-04-23T07:53:44Z</time>
      </trkpt>
      <trkpt lat="45.68652" lon="4.0759">
        <ele>426</ele>
        <time>2016-04-23T07:53:48Z</time>
      </trkpt>
      <trkpt lat="45.68632" lon="4.07592">
        <ele>427</ele>
        <time>2016-04-23T07:54:04Z</time>
      </trkpt>
      <trkpt lat="45.68617" lon="4.07594">
        <ele>427</ele>
        <time>2016-04-23T07:54:16Z</time>
      </trkpt>
      <trkpt lat="45.68606" lon="4.07593">
        <ele>427</ele>
        <time>2016-04-23T07:54:25Z</time>
      </trkpt>
      <trkpt lat="45.68596" lon="4.07591">
        <ele>427</ele>
        <time>2016-04-23T07:54:55Z</time>
      </trkpt>
      <trkpt lat="45.68591" lon="4.07589">
        <ele>427</ele>
        <time>2016-04-23T07:55:15Z</time>
      </trkpt>
      <trkpt lat="45.68586" lon="4.07587">
        <ele>427</ele>
        <time>2016-04-23T07:55:19Z</time>
      </trkpt>
      <trkpt lat="45.68563" lon="4.07572">
        <ele>424</ele>
        <time>2016-04-23T07:55:39Z</time>
      </trkpt>
      <trkpt lat="45.68548" lon="4.07563">
        <ele>425</ele>
        <time>2016-04-23T07:55:51Z</time>
      </trkpt>
      <trkpt lat="45.68538" lon="4.07557">
        <ele>424</ele>
        <time>2016-04-23T07:55:59Z</time>
      </trkpt>
      <trkpt lat="45.68503" lon="4.07532">
        <ele>425</ele>
        <time>2016-04-23T07:56:31Z</time>
      </trkpt>
      <trkpt lat="45.6848" lon="4.07519">
        <ele>424</ele>
        <time>2016-04-23T07:56:52Z</time>
      </trkpt>
      <trkpt lat="45.6847" lon="4.07515">
        <ele>424</ele>
        <time>2016-04-23T07:57:01Z</time>
      </trkpt>
      <trkpt lat="45.68456" lon="4.07506">
        <ele>425</ele>
        <time>2016-04-23T07:57:14Z</time>
      </trkpt>
      <trkpt lat="45.68451" lon="4.07503">
        <ele>425</ele>
        <time>2016-04-23T07:57:18Z</time>
      </trkpt>
      <trkpt lat="45.68415" lon="4.07478">
        <ele>427</ele>
        <time>2016-04-23T07:57:50Z</time>
      </trkpt>
      <trkpt lat="45.68402" lon="4.07466">
        <ele>427</ele>
        <time>2016-04-23T07:58:03Z</time>
      </trkpt>
      <trkpt lat="45.68398" lon="4.07461">
        <ele>426</ele>
        <time>2016-04-23T07:58:07Z</time>
      </trkpt>
      <trkpt lat="45.68389" lon="4.07453">
        <ele>426</ele>
        <time>2016-04-23T07:58:17Z</time>
      </trkpt>
      <trkpt lat="45.68366" lon="4.07436">
        <ele>426</ele>
        <time>2016-04-23T07:58:40Z</time>
      </trkpt>
      <trkpt lat="45.68362" lon="4.07433">
        <ele>426</ele>
        <time>2016-04-23T07:58:44Z</time>
      </trkpt>
      <trkpt lat="45.68346" lon="4.07432">
        <ele>425</ele>
        <time>2016-04-23T07:58:55Z</time>
      </trkpt>
      <trkpt lat="45.68326" lon="4.07424">
        <ele>425</ele>
        <time>2016-04-23T07:59:12Z</time>
      </trkpt>
      <trkpt lat="45.6832" lon="4.07423">
        <ele>424</ele>
        <time>2016-04-23T07:59:17Z</time>
      </trkpt>
      <trkpt lat="45.68315" lon="4.07423">
        <ele>424</ele>
        <time>2016-04-23T07:59:22Z</time>
      </trkpt>
      <trkpt lat="45.68305" lon="4.07421">
        <ele>425</ele>
        <time>2016-04-23T07:59:31Z</time>
      </trkpt>
      <trkpt lat="45.68284" lon="4.07402">
        <ele>424</ele>
        <time>2016-04-23T07:59:51Z</time>
      </trkpt>
      <trkpt lat="45.68271" lon="4.07388">
        <ele>424</ele>
        <time>2016-04-23T08:00:04Z</time>
      </trkpt>
      <trkpt lat="45.68266" lon="4.07384">
        <ele>424</ele>
        <time>2016-04-23T08:00:08Z</time>
      </trkpt>
      <trkpt lat="45.68262" lon="4.07381">
        <ele>424</ele>
        <time>2016-04-23T08:00:12Z</time>
      </trkpt>
      <trkpt lat="45.68248" lon="4.07373">
        <ele>424</ele>
        <time>2016-04-23T08:00:24Z</time>
      </trkpt>
      <trkpt lat="45.68231" lon="4.07355">
        <ele>421</ele>
        <time>2016-04-23T08:00:39Z</time>
      </trkpt>
      <trkpt lat="45.68226" lon="4.07353">
        <ele>421</ele>
        <time>2016-04-23T08:00:43Z</time>
      </trkpt>
      <trkpt lat="45.68201" lon="4.07349">
        <ele>424</ele>
        <time>2016-04-23T08:01:03Z</time>
      </trkpt>
      <trkpt lat="45.68196" lon="4.07347">
        <ele>424</ele>
        <time>2016-04-23T08:01:07Z</time>
      </trkpt>
      <trkpt lat="45.68181" lon="4.07342">
        <ele>425</ele>
        <time>2016-04-23T08:01:20Z</time>
      </trkpt>
      <trkpt lat="45.68171" lon="4.07336">
        <ele>425</ele>
        <time>2016-04-23T08:01:28Z</time>
      </trkpt>
      <trkpt lat="45.68161" lon="4.07335">
        <ele>426</ele>
        <time>2016-04-23T08:01:37Z</time>
      </trkpt>
      <trkpt lat="45.68156" lon="4.07333">
        <ele>426</ele>
        <time>2016-04-23T08:01:42Z</time>
      </trkpt>
      <trkpt lat="45.6815" lon="4.0733">
        <ele>426</ele>
        <time>2016-04-23T08:01:53Z</time>
      </trkpt>
      <trkpt lat="45.68145" lon="4.07328">
        <ele>426</ele>
        <time>2016-04-23T08:01:58Z</time>
      </trkpt>
      <trkpt lat="45.68129" lon="4.07322">
        <ele>424</ele>
        <time>2016-04-23T08:02:10Z</time>
      </trkpt>
      <trkpt lat="45.68119" lon="4.07321">
        <ele>424</ele>
        <time>2016-04-23T08:02:19Z</time>
      </trkpt>
      <trkpt lat="45.68099" lon="4.07319">
        <ele>423</ele>
        <time>2016-04-23T08:02:35Z</time>
      </trkpt>
      <trkpt lat="45.68094" lon="4.07318">
        <ele>423</ele>
        <time>2016-04-23T08:02:39Z</time>
      </trkpt>
      <trkpt lat="45.68089" lon="4.07318">
        <ele>423</ele>
        <time>2016-04-23T08:02:44Z</time>
      </trkpt>
      <trkpt lat="45.68073" lon="4.07318">
        <ele>424</ele>
        <time>2016-04-23T08:02:56Z</time>
      </trkpt>
      <trkpt lat="45.68063" lon="4.07318">
        <ele>424</ele>
        <time>2016-04-23T08:03:04Z</time>
      </trkpt>
      <trkpt lat="45.68042" lon="4.07316">
        <ele>424</ele>
        <time>2016-04-23T08:03:21Z</time>
      </trkpt>
      <trkpt lat="45.68037" lon="4.07316">
        <ele>424</ele>
        <time>2016-04-23T08:03:26Z</time>
      </trkpt>
      <trkpt lat="45.68032" lon="4.07316">
        <ele>424</ele>
        <time>2016-04-23T08:03:30Z</time>
      </trkpt>
      <trkpt lat="45.68027" lon="4.07316">
        <ele>424</ele>
        <time>2016-04-23T08:03:34Z</time>
      </trkpt>
      <trkpt lat="45.68001" lon="4.0732">
        <ele>426</ele>
        <time>2016-04-23T08:03:57Z</time>
      </trkpt>
      <trkpt lat="45.67996" lon="4.0732">
        <ele>424</ele>
        <time>2016-04-23T08:04:01Z</time>
      </trkpt>
      <trkpt lat="45.67985" lon="4.07319">
        <ele>424</ele>
        <time>2016-04-23T08:04:09Z</time>
      </trkpt>
      <trkpt lat="45.67971" lon="4.07317">
        <ele>425</ele>
        <time>2016-04-23T08:04:21Z</time>
      </trkpt>
      <trkpt lat="45.67966" lon="4.07316">
        <ele>424</ele>
        <time>2016-04-23T08:04:25Z</time>
      </trkpt>
      <trkpt lat="45.67962" lon="4.07315">
        <ele>424</ele>
        <time>2016-04-23T08:04:29Z</time>
      </trkpt>
      <trkpt lat="45.67952" lon="4.07313">
        <ele>424</ele>
        <time>2016-04-23T08:04:39Z</time>
      </trkpt>
      <trkpt lat="45.67918" lon="4.07307">
        <ele>423</ele>
        <time>2016-04-23T08:05:07Z</time>
      </trkpt>
      <trkpt lat="45.67913" lon="4.07307">
        <ele>423</ele>
        <time>2016-04-23T08:05:11Z</time>
      </trkpt>
      <trkpt lat="45.67908" lon="4.07308">
        <ele>423</ele>
        <time>2016-04-23T08:05:15Z</time>
      </trkpt>
      <trkpt lat="45.67879" lon="4.07311">
        <ele>424</ele>
        <time>2016-04-23T08:05:40Z</time>
      </trkpt>
      <trkpt lat="45.67874" lon="4.07312">
        <ele>423</ele>
        <time>2016-04-23T08:05:44Z</time>
      </trkpt>
      <trkpt lat="45.67869" lon="4.07311">
        <ele>424</ele>
        <time>2016-04-23T08:05:48Z</time>
      </trkpt>
      <trkpt lat="45.67858" lon="4.07312">
        <ele>424</ele>
        <time>2016-04-23T08:05:56Z</time>
      </trkpt>
      <trkpt lat="45.67824" lon="4.07314">
        <ele>425</ele>
        <time>2016-04-23T08:06:36Z</time>
      </trkpt>
      <trkpt lat="45.67787" lon="4.0731">
        <ele>424</ele>
        <time>2016-04-23T08:07:06Z</time>
      </trkpt>
      <trkpt lat="45.67774" lon="4.07304">
        <ele>424</ele>
        <time>2016-04-23T08:07:18Z</time>
      </trkpt>
      <trkpt lat="45.67769" lon="4.07302">
        <ele>424</ele>
        <time>2016-04-23T08:07:22Z</time>
      </trkpt>
      <trkpt lat="45.6773" lon="4.07288">
        <ele>423</ele>
        <time>2016-04-23T08:07:56Z</time>
      </trkpt>
      <trkpt lat="45.67701" lon="4.07274">
        <ele>423</ele>
        <time>2016-04-23T08:08:22Z</time>
      </trkpt>
      <trkpt lat="45.67683" lon="4.07269">
        <ele>421</ele>
        <time>2016-04-23T08:08:38Z</time>
      </trkpt>
      <trkpt lat="45.67678" lon="4.07267">
        <ele>421</ele>
        <time>2016-04-23T08:08:42Z</time>
      </trkpt>
      <trkpt lat="45.67663" lon="4.07263">
        <ele>421</ele>
        <time>2016-04-23T08:08:55Z</time>
      </trkpt>
      <trkpt lat="45.67658" lon="4.07262">
        <ele>420</ele>
        <time>2016-04-23T08:08:59Z</time>
      </trkpt>
      <trkpt lat="45.67653" lon="4.07261">
        <ele>420</ele>
        <time>2016-04-23T08:09:03Z</time>
      </trkpt>
      <trkpt lat="45.6765" lon="4.07261">
        <ele>419</ele>
        <time>2016-04-23T08:09:12Z</time>
      </trkpt>
      <trkpt lat="45.67645" lon="4.07258">
        <ele>419</ele>
        <time>2016-04-23T08:09:40Z</time>
      </trkpt>
      <trkpt lat="45.67631" lon="4.07253">
        <ele>421</ele>
        <time>2016-04-23T08:09:53Z</time>
      </trkpt>
      <trkpt lat="45.67615" lon="4.07249">
        <ele>421</ele>
        <time>2016-04-23T08:10:05Z</time>
      </trkpt>
      <trkpt lat="45.67582" lon="4.0724">
        <ele>417</ele>
        <time>2016-04-23T08:10:33Z</time>
      </trkpt>
      <trkpt lat="45.67577" lon="4.07238">
        <ele>417</ele>
        <time>2016-04-23T08:10:37Z</time>
      </trkpt>
      <trkpt lat="45.67567" lon="4.07237">
        <ele>418</ele>
        <time>2016-04-23T08:10:45Z</time>
      </trkpt>
      <trkpt lat="45.67552" lon="4.07236">
        <ele>419</ele>
        <time>2016-04-23T08:10:57Z</time>
      </trkpt>
      <trkpt lat="45.67527" lon="4.07231">
        <ele>417</ele>
        <time>2016-04-23T08:11:16Z</time>
      </trkpt>
      <trkpt lat="45.67521" lon="4.0723">
        <ele>417</ele>
        <time>2016-04-23T08:11:20Z</time>
      </trkpt>
      <trkpt lat="45.67506" lon="4.07225">
        <ele>419</ele>
        <time>2016-04-23T08:11:32Z</time>
      </trkpt>
      <trkpt lat="45.67502" lon="4.07223">
        <ele>419</ele>
        <time>2016-04-23T08:11:36Z</time>
      </trkpt>
      <trkpt lat="45.67492" lon="4.0722">
        <ele>416</ele>
        <time>2016-04-23T08:11:44Z</time>
      </trkpt>
      <trkpt lat="45.67467" lon="4.07212">
        <ele>414</ele>
        <time>2016-04-23T08:12:05Z</time>
      </trkpt>
      <trkpt lat="45.67463" lon="4.07209">
        <ele>414</ele>
        <time>2016-04-23T08:12:10Z</time>
      </trkpt>
      <trkpt lat="45.67428" lon="4.07179">
        <ele>411</ele>
        <time>2016-04-23T08:12:42Z</time>
      </trkpt>
      <trkpt lat="45.67403" lon="4.07135">
        <ele>409</ele>
        <time>2016-04-23T08:13:14Z</time>
      </trkpt>
      <trkpt lat="45.67371" lon="4.07099">
        <ele>406</ele>
        <time>2016-04-23T08:13:47Z</time>
      </trkpt>
      <trkpt lat="45.67364" lon="4.07089">
        <ele>406</ele>
        <time>2016-04-23T08:13:55Z</time>
      </trkpt>
      <trkpt lat="45.6736" lon="4.07084">
        <ele>404</ele>
        <time>2016-04-23T08:13:59Z</time>
      </trkpt>
      <trkpt lat="45.67347" lon="4.07044">
        <ele>402</ele>
        <time>2016-04-23T08:14:25Z</time>
      </trkpt>
      <trkpt lat="45.67342" lon="4.07046">
        <ele>402</ele>
        <time>2016-04-23T08:14:33Z</time>
      </trkpt>
      <trkpt lat="45.67338" lon="4.07049">
        <ele>401</ele>
        <time>2016-04-23T08:14:37Z</time>
      </trkpt>
      <trkpt lat="45.67325" lon="4.07059">
        <ele>402</ele>
        <time>2016-04-23T08:14:48Z</time>
      </trkpt>
      <trkpt lat="45.67319" lon="4.07059">
        <ele>401</ele>
        <time>2016-04-23T08:14:52Z</time>
      </trkpt>
      <trkpt lat="45.67313" lon="4.0706">
        <ele>401</ele>
        <time>2016-04-23T08:14:56Z</time>
      </trkpt>
      <trkpt lat="45.67308" lon="4.07062">
        <ele>402</ele>
        <time>2016-04-23T08:15:00Z</time>
      </trkpt>
      <trkpt lat="45.67291" lon="4.07073">
        <ele>401</ele>
        <time>2016-04-23T08:15:17Z</time>
      </trkpt>
      <trkpt lat="45.67289" lon="4.07067">
        <ele>401</ele>
        <time>2016-04-23T08:15:27Z</time>
      </trkpt>
      <trkpt lat="45.67283" lon="4.07071">
        <ele>401</ele>
        <time>2016-04-23T08:15:39Z</time>
      </trkpt>
      <trkpt lat="45.67285" lon="4.07075">
        <ele>401</ele>
        <time>2016-04-23T08:17:42Z</time>
      </trkpt>
      <trkpt lat="45.67281" lon="4.07077">
        <ele>401</ele>
        <time>2016-04-23T08:17:45Z</time>
      </trkpt>
      <trkpt lat="45.67283" lon="4.07073">
        <ele>400</ele>
        <time>2016-04-23T08:18:32Z</time>
      </trkpt>
      <trkpt lat="45.67285" lon="4.07071">
        <ele>399</ele>
        <time>2016-04-23T08:19:33Z</time>
      </trkpt>
      <trkpt lat="45.67279" lon="4.0707">
        <ele>398</ele>
        <time>2016-04-23T08:19:53Z</time>
      </trkpt>
      <trkpt lat="45.67273" lon="4.07071">
        <ele>396</ele>
        <time>2016-04-23T08:20:02Z</time>
      </trkpt>
      <trkpt lat="45.67268" lon="4.07073">
        <ele>396</ele>
        <time>2016-04-23T08:20:07Z</time>
      </trkpt>
      <trkpt lat="45.67265" lon="4.07078">
        <ele>396</ele>
        <time>2016-04-23T08:20:11Z</time>
      </trkpt>
      <trkpt lat="45.67261" lon="4.07084">
        <ele>396</ele>
        <time>2016-04-23T08:20:15Z</time>
      </trkpt>
      <trkpt lat="45.67257" lon="4.07088">
        <ele>395</ele>
        <time>2016-04-23T08:20:20Z</time>
      </trkpt>
      <trkpt lat="45.67247" lon="4.07093">
        <ele>395</ele>
        <time>2016-04-23T08:20:30Z</time>
      </trkpt>
      <trkpt lat="45.67242" lon="4.07093">
        <ele>395</ele>
        <time>2016-04-23T08:20:36Z</time>
      </trkpt>
      <trkpt lat="45.67233" lon="4.07097">
        <ele>395</ele>
        <time>2016-04-23T08:20:46Z</time>
      </trkpt>
      <trkpt lat="45.67235" lon="4.07091">
        <ele>394</ele>
        <time>2016-04-23T08:20:59Z</time>
      </trkpt>
      <trkpt lat="45.67237" lon="4.07077">
        <ele>392</ele>
        <time>2016-04-23T08:21:10Z</time>
      </trkpt>
      <trkpt lat="45.67237" lon="4.07061">
        <ele>391</ele>
        <time>2016-04-23T08:21:17Z</time>
      </trkpt>
      <trkpt lat="45.67244" lon="4.07051">
        <ele>391</ele>
        <time>2016-04-23T08:21:21Z</time>
      </trkpt>
      <trkpt lat="45.67246" lon="4.07035">
        <ele>390</ele>
        <time>2016-04-23T08:21:32Z</time>
      </trkpt>
      <trkpt lat="45.67241" lon="4.07033">
        <ele>390</ele>
        <time>2016-04-23T08:21:34Z</time>
      </trkpt>
      <trkpt lat="45.67228" lon="4.07022">
        <ele>389</ele>
        <time>2016-04-23T08:21:42Z</time>
      </trkpt>
      <trkpt lat="45.67217" lon="4.06981">
        <ele>388</ele>
        <time>2016-04-23T08:22:06Z</time>
      </trkpt>
      <trkpt lat="45.67208" lon="4.06926">
        <ele>385</ele>
        <time>2016-04-23T08:22:37Z</time>
      </trkpt>
      <trkpt lat="45.67205" lon="4.0692">
        <ele>384</ele>
        <time>2016-04-23T08:22:44Z</time>
      </trkpt>
      <trkpt lat="45.67196" lon="4.06904">
        <ele>383</ele>
        <time>2016-04-23T08:23:01Z</time>
      </trkpt>
      <trkpt lat="45.67197" lon="4.06897">
        <ele>383</ele>
        <time>2016-04-23T08:23:04Z</time>
      </trkpt>
      <trkpt lat="45.67194" lon="4.06884">
        <ele>382</ele>
        <time>2016-04-23T08:23:10Z</time>
      </trkpt>
      <trkpt lat="45.67191" lon="4.06879">
        <ele>381</ele>
        <time>2016-04-23T08:23:16Z</time>
      </trkpt>
      <trkpt lat="45.6717" lon="4.06836">
        <ele>380</ele>
        <time>2016-04-23T08:23:46Z</time>
      </trkpt>
      <trkpt lat="45.67152" lon="4.068">
        <ele>379</ele>
        <time>2016-04-23T08:24:16Z</time>
      </trkpt>
      <trkpt lat="45.67146" lon="4.06789">
        <ele>378</ele>
        <time>2016-04-23T08:24:26Z</time>
      </trkpt>
      <trkpt lat="45.67141" lon="4.06785">
        <ele>378</ele>
        <time>2016-04-23T08:24:32Z</time>
      </trkpt>
      <trkpt lat="45.67125" lon="4.06786">
        <ele>379</ele>
        <time>2016-04-23T08:24:50Z</time>
      </trkpt>
      <trkpt lat="45.67124" lon="4.06781">
        <ele>386</ele>
        <time>2016-04-23T08:25:55Z</time>
      </trkpt>
      <trkpt lat="45.67124" lon="4.06775">
        <ele>386</ele>
        <time>2016-04-23T08:26:05Z</time>
      </trkpt>
      <trkpt lat="45.6712" lon="4.06776">
        <ele>386</ele>
        <time>2016-04-23T08:26:43Z</time>
      </trkpt>
      <trkpt lat="45.67115" lon="4.06777">
        <ele>386</ele>
        <time>2016-04-23T08:26:48Z</time>
      </trkpt>
      <trkpt lat="45.67111" lon="4.06778">
        <ele>385</ele>
        <time>2016-04-23T08:26:52Z</time>
      </trkpt>
      <trkpt lat="45.67106" lon="4.06776">
        <ele>385</ele>
        <time>2016-04-23T08:26:57Z</time>
      </trkpt>
      <trkpt lat="45.67072" lon="4.06739">
        <ele>385</ele>
        <time>2016-04-23T08:27:30Z</time>
      </trkpt>
      <trkpt lat="45.67068" lon="4.06735">
        <ele>385</ele>
        <time>2016-04-23T08:27:34Z</time>
      </trkpt>
      <trkpt lat="45.67032" lon="4.06705">
        <ele>385</ele>
        <time>2016-04-23T08:28:06Z</time>
      </trkpt>
      <trkpt lat="45.66994" lon="4.06679">
        <ele>387</ele>
        <time>2016-04-23T08:28:38Z</time>
      </trkpt>
      <trkpt lat="45.66955" lon="4.06654">
        <ele>388</ele>
        <time>2016-04-23T08:29:10Z</time>
      </trkpt>
      <trkpt lat="45.66917" lon="4.06629">
        <ele>389</ele>
        <time>2016-04-23T08:29:42Z</time>
      </trkpt>
      <trkpt lat="45.66882" lon="4.06605">
        <ele>388</ele>
        <time>2016-04-23T08:30:10Z</time>
      </trkpt>
      <trkpt lat="45.66877" lon="4.06602">
        <ele>389</ele>
        <time>2016-04-23T08:30:14Z</time>
      </trkpt>
      <trkpt lat="45.66852" lon="4.06588">
        <ele>389</ele>
        <time>2016-04-23T08:30:34Z</time>
      </trkpt>
      <trkpt lat="45.66847" lon="4.06585">
        <ele>389</ele>
        <time>2016-04-23T08:30:38Z</time>
      </trkpt>
      <trkpt lat="45.66832" lon="4.06575">
        <ele>389</ele>
        <time>2016-04-23T08:30:50Z</time>
      </trkpt>
      <trkpt lat="45.66822" lon="4.06568">
        <ele>389</ele>
        <time>2016-04-23T08:30:58Z</time>
      </trkpt>
      <trkpt lat="45.66785" lon="4.0654">
        <ele>389</ele>
        <time>2016-04-23T08:31:30Z</time>
      </trkpt>
      <trkpt lat="45.66747" lon="4.06513">
        <ele>389</ele>
        <time>2016-04-23T08:32:02Z</time>
      </trkpt>
      <trkpt lat="45.66713" lon="4.06479">
        <ele>389</ele>
        <time>2016-04-23T08:32:34Z</time>
      </trkpt>
      <trkpt lat="45.66679" lon="4.06442">
        <ele>388</ele>
        <time>2016-04-23T08:33:07Z</time>
      </trkpt>
      <trkpt lat="45.66676" lon="4.06437">
        <ele>387</ele>
        <time>2016-04-23T08:33:11Z</time>
      </trkpt>
      <trkpt lat="45.66672" lon="4.06432">
        <ele>387</ele>
        <time>2016-04-23T08:33:15Z</time>
      </trkpt>
      <trkpt lat="45.66645" lon="4.06399">
        <ele>385</ele>
        <time>2016-04-23T08:33:48Z</time>
      </trkpt>
      <trkpt lat="45.66641" lon="4.06393">
        <ele>385</ele>
        <time>2016-04-23T08:33:52Z</time>
      </trkpt>
      <trkpt lat="45.66639" lon="4.06388">
        <ele>385</ele>
        <time>2016-04-23T08:33:56Z</time>
      </trkpt>
      <trkpt lat="45.66615" lon="4.0634">
        <ele>384</ele>
        <time>2016-04-23T08:34:29Z</time>
      </trkpt>
      <trkpt lat="45.66596" lon="4.06288">
        <ele>383</ele>
        <time>2016-04-23T08:35:01Z</time>
      </trkpt>
      <trkpt lat="45.66595" lon="4.06281">
        <ele>383</ele>
        <time>2016-04-23T08:35:05Z</time>
      </trkpt>
      <trkpt lat="45.66591" lon="4.06261">
        <ele>383</ele>
        <time>2016-04-23T08:35:17Z</time>
      </trkpt>
      <trkpt lat="45.66585" lon="4.06207">
        <ele>383</ele>
        <time>2016-04-23T08:35:49Z</time>
      </trkpt>
      <trkpt lat="45.66577" lon="4.06159">
        <ele>382</ele>
        <time>2016-04-23T08:36:19Z</time>
      </trkpt>
      <trkpt lat="45.66571" lon="4.06111">
        <ele>383</ele>
        <time>2016-04-23T08:36:48Z</time>
      </trkpt>
      <trkpt lat="45.66571" lon="4.06104">
        <ele>384</ele>
        <time>2016-04-23T08:36:52Z</time>
      </trkpt>
      <trkpt lat="45.6657" lon="4.0609">
        <ele>384</ele>
        <time>2016-04-23T08:37:01Z</time>
      </trkpt>
      <trkpt lat="45.6657" lon="4.06082">
        <ele>384</ele>
        <time>2016-04-23T08:37:05Z</time>
      </trkpt>
      <trkpt lat="45.66569" lon="4.06075">
        <ele>384</ele>
        <time>2016-04-23T08:37:09Z</time>
      </trkpt>
      <trkpt lat="45.6657" lon="4.06068">
        <ele>384</ele>
        <time>2016-04-23T08:37:13Z</time>
      </trkpt>
      <trkpt lat="45.6657" lon="4.06061">
        <ele>384</ele>
        <time>2016-04-23T08:37:17Z</time>
      </trkpt>
      <trkpt lat="45.6657" lon="4.06047">
        <ele>385</ele>
        <time>2016-04-23T08:37:25Z</time>
      </trkpt>
      <trkpt lat="45.66567" lon="4.06033">
        <ele>385</ele>
        <time>2016-04-23T08:37:33Z</time>
      </trkpt>
      <trkpt lat="45.66565" lon="4.06025">
        <ele>385</ele>
        <time>2016-04-23T08:37:37Z</time>
      </trkpt>
      <trkpt lat="45.66562" lon="4.06019">
        <ele>385</ele>
        <time>2016-04-23T08:37:41Z</time>
      </trkpt>
      <trkpt lat="45.66538" lon="4.05972">
        <ele>383</ele>
        <time>2016-04-23T08:38:13Z</time>
      </trkpt>
      <trkpt lat="45.66528" lon="4.05956">
        <ele>383</ele>
        <time>2016-04-23T08:38:28Z</time>
      </trkpt>
      <trkpt lat="45.66524" lon="4.0595">
        <ele>384</ele>
        <time>2016-04-23T08:38:33Z</time>
      </trkpt>
      <trkpt lat="45.66522" lon="4.05944">
        <ele>384</ele>
        <time>2016-04-23T08:38:37Z</time>
      </trkpt>
      <trkpt lat="45.66504" lon="4.05909">
        <ele>385</ele>
        <time>2016-04-23T08:39:02Z</time>
      </trkpt>
      <trkpt lat="45.66483" lon="4.05888">
        <ele>383</ele>
        <time>2016-04-23T08:39:23Z</time>
      </trkpt>
      <trkpt lat="45.66468" lon="4.05885">
        <ele>383</ele>
        <time>2016-04-23T08:39:35Z</time>
      </trkpt>
      <trkpt lat="45.66458" lon="4.05882">
        <ele>383</ele>
        <time>2016-04-23T08:39:43Z</time>
      </trkpt>
      <trkpt lat="45.66449" lon="4.0588">
        <ele>384</ele>
        <time>2016-04-23T08:39:51Z</time>
      </trkpt>
      <trkpt lat="45.66419" lon="4.05873">
        <ele>385</ele>
        <time>2016-04-23T08:40:15Z</time>
      </trkpt>
      <trkpt lat="45.66414" lon="4.0587">
        <ele>386</ele>
        <time>2016-04-23T08:40:20Z</time>
      </trkpt>
      <trkpt lat="45.66405" lon="4.05862">
        <ele>386</ele>
        <time>2016-04-23T08:40:28Z</time>
      </trkpt>
      <trkpt lat="45.66394" lon="4.05838">
        <ele>386</ele>
        <time>2016-04-23T08:40:46Z</time>
      </trkpt>
      <trkpt lat="45.6639" lon="4.05825">
        <ele>387</ele>
        <time>2016-04-23T08:40:55Z</time>
      </trkpt>
      <trkpt lat="45.66388" lon="4.05818">
        <ele>388</ele>
        <time>2016-04-23T08:41:00Z</time>
      </trkpt>
      <trkpt lat="45.66381" lon="4.05809">
        <ele>387</ele>
        <time>2016-04-23T08:41:09Z</time>
      </trkpt>
      <trkpt lat="45.66377" lon="4.05805">
        <ele>386</ele>
        <time>2016-04-23T08:41:13Z</time>
      </trkpt>
      <trkpt lat="45.66372" lon="4.05801">
        <ele>387</ele>
        <time>2016-04-23T08:41:17Z</time>
      </trkpt>
      <trkpt lat="45.66363" lon="4.05795">
        <ele>387</ele>
        <time>2016-04-23T08:41:25Z</time>
      </trkpt>
      <trkpt lat="45.66354" lon="4.05787">
        <ele>387</ele>
        <time>2016-04-23T08:41:33Z</time>
      </trkpt>
      <trkpt lat="45.66344" lon="4.0578">
        <ele>387</ele>
        <time>2016-04-23T08:41:41Z</time>
      </trkpt>
      <trkpt lat="45.66325" lon="4.05767">
        <ele>387</ele>
        <time>2016-04-23T08:41:58Z</time>
      </trkpt>
      <trkpt lat="45.6632" lon="4.05764">
        <ele>387</ele>
        <time>2016-04-23T08:42:02Z</time>
      </trkpt>
      <trkpt lat="45.66285" lon="4.05737">
        <ele>385</ele>
        <time>2016-04-23T08:42:37Z</time>
      </trkpt>
      <trkpt lat="45.66281" lon="4.05734">
        <ele>385</ele>
        <time>2016-04-23T08:42:41Z</time>
      </trkpt>
      <trkpt lat="45.66267" lon="4.05725">
        <ele>385</ele>
        <time>2016-04-23T08:42:53Z</time>
      </trkpt>
      <trkpt lat="45.6624" lon="4.05708">
        <ele>385</ele>
        <time>2016-04-23T08:43:18Z</time>
      </trkpt>
      <trkpt lat="45.66235" lon="4.05705">
        <ele>386</ele>
        <time>2016-04-23T08:43:22Z</time>
      </trkpt>
      <trkpt lat="45.66221" lon="4.05697">
        <ele>386</ele>
        <time>2016-04-23T08:43:34Z</time>
      </trkpt>
      <trkpt lat="45.66216" lon="4.05695">
        <ele>385</ele>
        <time>2016-04-23T08:43:39Z</time>
      </trkpt>
      <trkpt lat="45.66181" lon="4.05684">
        <ele>385</ele>
        <time>2016-04-23T08:44:10Z</time>
      </trkpt>
      <trkpt lat="45.66166" lon="4.0568">
        <ele>385</ele>
        <time>2016-04-23T08:44:23Z</time>
      </trkpt>
      <trkpt lat="45.66131" lon="4.0567">
        <ele>383</ele>
        <time>2016-04-23T08:44:52Z</time>
      </trkpt>
      <trkpt lat="45.66094" lon="4.05658">
        <ele>385</ele>
        <time>2016-04-23T08:45:24Z</time>
      </trkpt>
      <trkpt lat="45.66089" lon="4.05657">
        <ele>385</ele>
        <time>2016-04-23T08:45:28Z</time>
      </trkpt>
      <trkpt lat="45.66085" lon="4.05656">
        <ele>385</ele>
        <time>2016-04-23T08:45:38Z</time>
      </trkpt>
      <trkpt lat="45.6608" lon="4.05656">
        <ele>385</ele>
        <time>2016-04-23T08:46:05Z</time>
      </trkpt>
      <trkpt lat="45.66071" lon="4.05653">
        <ele>386</ele>
        <time>2016-04-23T08:46:13Z</time>
      </trkpt>
      <trkpt lat="45.6606" lon="4.0565">
        <ele>387</ele>
        <time>2016-04-23T08:46:21Z</time>
      </trkpt>
      <trkpt lat="45.6605" lon="4.05648">
        <ele>385</ele>
        <time>2016-04-23T08:46:30Z</time>
      </trkpt>
      <trkpt lat="45.66011" lon="4.05635">
        <ele>384</ele>
        <time>2016-04-23T08:47:04Z</time>
      </trkpt>
      <trkpt lat="45.66006" lon="4.05634">
        <ele>384</ele>
        <time>2016-04-23T08:47:08Z</time>
      </trkpt>
      <trkpt lat="45.65977" lon="4.0563">
        <ele>382</ele>
        <time>2016-04-23T08:47:32Z</time>
      </trkpt>
      <trkpt lat="45.65972" lon="4.05631">
        <ele>382</ele>
        <time>2016-04-23T08:47:36Z</time>
      </trkpt>
      <trkpt lat="45.65967" lon="4.05633">
        <ele>382</ele>
        <time>2016-04-23T08:47:40Z</time>
      </trkpt>
      <trkpt lat="45.65952" lon="4.05634">
        <ele>384</ele>
        <time>2016-04-23T08:47:53Z</time>
      </trkpt>
      <trkpt lat="45.65947" lon="4.05632">
        <ele>385</ele>
        <time>2016-04-23T08:47:58Z</time>
      </trkpt>
      <trkpt lat="45.65943" lon="4.05628">
        <ele>385</ele>
        <time>2016-04-23T08:48:04Z</time>
      </trkpt>
      <trkpt lat="45.65938" lon="4.05628">
        <ele>385</ele>
        <time>2016-04-23T08:48:08Z</time>
      </trkpt>
      <trkpt lat="45.65933" lon="4.05627">
        <ele>385</ele>
        <time>2016-04-23T08:48:12Z</time>
      </trkpt>
      <trkpt lat="45.65923" lon="4.05624">
        <ele>386</ele>
        <time>2016-04-23T08:48:20Z</time>
      </trkpt>
      <trkpt lat="45.65913" lon="4.0562">
        <ele>384</ele>
        <time>2016-04-23T08:48:28Z</time>
      </trkpt>
      <trkpt lat="45.65903" lon="4.05619">
        <ele>385</ele>
        <time>2016-04-23T08:48:43Z</time>
      </trkpt>
      <trkpt lat="45.65888" lon="4.05616">
        <ele>383</ele>
        <time>2016-04-23T08:48:55Z</time>
      </trkpt>
      <trkpt lat="45.65883" lon="4.05612">
        <ele>383</ele>
        <time>2016-04-23T08:48:59Z</time>
      </trkpt>
      <trkpt lat="45.65875" lon="4.05603">
        <ele>383</ele>
        <time>2016-04-23T08:49:07Z</time>
      </trkpt>
      <trkpt lat="45.65871" lon="4.056">
        <ele>384</ele>
        <time>2016-04-23T08:49:11Z</time>
      </trkpt>
      <trkpt lat="45.65848" lon="4.05578">
        <ele>384</ele>
        <time>2016-04-23T08:49:35Z</time>
      </trkpt>
      <trkpt lat="45.65843" lon="4.05576">
        <ele>384</ele>
        <time>2016-04-23T08:49:40Z</time>
      </trkpt>
      <trkpt lat="45.65819" lon="4.05563">
        <ele>385</ele>
        <time>2016-04-23T08:50:02Z</time>
      </trkpt>
      <trkpt lat="45.65815" lon="4.05558">
        <ele>385</ele>
        <time>2016-04-23T08:50:06Z</time>
      </trkpt>
      <trkpt lat="45.65813" lon="4.05552">
        <ele>385</ele>
        <time>2016-04-23T08:50:18Z</time>
      </trkpt>
      <trkpt lat="45.65804" lon="4.05544">
        <ele>385</ele>
        <time>2016-04-23T08:50:27Z</time>
      </trkpt>
      <trkpt lat="45.65796" lon="4.05536">
        <ele>385</ele>
        <time>2016-04-23T08:50:35Z</time>
      </trkpt>
      <trkpt lat="45.65792" lon="4.05531">
        <ele>385</ele>
        <time>2016-04-23T08:50:40Z</time>
      </trkpt>
      <trkpt lat="45.65775" lon="4.05516">
        <ele>380</ele>
        <time>2016-04-23T08:50:58Z</time>
      </trkpt>
      <trkpt lat="45.65763" lon="4.05502">
        <ele>380</ele>
        <time>2016-04-23T08:51:13Z</time>
      </trkpt>
      <trkpt lat="45.65758" lon="4.05498">
        <ele>379</ele>
        <time>2016-04-23T08:51:17Z</time>
      </trkpt>
      <trkpt lat="45.65736" lon="4.05477">
        <ele>379</ele>
        <time>2016-04-23T08:51:36Z</time>
      </trkpt>
      <trkpt lat="45.65727" lon="4.0547">
        <ele>380</ele>
        <time>2016-04-23T08:51:45Z</time>
      </trkpt>
      <trkpt lat="45.65708" lon="4.05447">
        <ele>379</ele>
        <time>2016-04-23T08:52:06Z</time>
      </trkpt>
      <trkpt lat="45.65704" lon="4.05443">
        <ele>378</ele>
        <time>2016-04-23T08:52:10Z</time>
      </trkpt>
      <trkpt lat="45.657" lon="4.05438">
        <ele>378</ele>
        <time>2016-04-23T08:52:14Z</time>
      </trkpt>
      <trkpt lat="45.6569" lon="4.05424">
        <ele>378</ele>
        <time>2016-04-23T08:52:26Z</time>
      </trkpt>
      <trkpt lat="45.65661" lon="4.05385">
        <ele>379</ele>
        <time>2016-04-23T08:53:00Z</time>
      </trkpt>
      <trkpt lat="45.65654" lon="4.05376">
        <ele>379</ele>
        <time>2016-04-23T08:53:08Z</time>
      </trkpt>
      <trkpt lat="45.65635" lon="4.05353">
        <ele>382</ele>
        <time>2016-04-23T08:53:29Z</time>
      </trkpt>
      <trkpt lat="45.6561" lon="4.0532">
        <ele>381</ele>
        <time>2016-04-23T08:53:59Z</time>
      </trkpt>
      <trkpt lat="45.65607" lon="4.05316">
        <ele>381</ele>
        <time>2016-04-23T08:54:03Z</time>
      </trkpt>
      <trkpt lat="45.65603" lon="4.05311">
        <ele>381</ele>
        <time>2016-04-23T08:54:07Z</time>
      </trkpt>
      <trkpt lat="45.65599" lon="4.05305">
        <ele>381</ele>
        <time>2016-04-23T08:54:12Z</time>
      </trkpt>
      <trkpt lat="45.65595" lon="4.05302">
        <ele>381</ele>
        <time>2016-04-23T08:54:16Z</time>
      </trkpt>
      <trkpt lat="45.65589" lon="4.05301">
        <ele>381</ele>
        <time>2016-04-23T08:54:21Z</time>
      </trkpt>
      <trkpt lat="45.6558" lon="4.05303">
        <ele>382</ele>
        <time>2016-04-23T08:54:29Z</time>
      </trkpt>
      <trkpt lat="45.6557" lon="4.05306">
        <ele>381</ele>
        <time>2016-04-23T08:54:39Z</time>
      </trkpt>
      <trkpt lat="45.65565" lon="4.05309">
        <ele>382</ele>
        <time>2016-04-23T08:54:44Z</time>
      </trkpt>
      <trkpt lat="45.65555" lon="4.05313">
        <ele>381</ele>
        <time>2016-04-23T08:54:54Z</time>
      </trkpt>
      <trkpt lat="45.65545" lon="4.05316">
        <ele>382</ele>
        <time>2016-04-23T08:55:02Z</time>
      </trkpt>
      <trkpt lat="45.65504" lon="4.05309">
        <ele>382</ele>
        <time>2016-04-23T08:55:41Z</time>
      </trkpt>
      <trkpt lat="45.6547" lon="4.05298">
        <ele>381</ele>
        <time>2016-04-23T08:56:12Z</time>
      </trkpt>
      <trkpt lat="45.65465" lon="4.05297">
        <ele>381</ele>
        <time>2016-04-23T08:56:16Z</time>
      </trkpt>
      <trkpt lat="45.65445" lon="4.05291">
        <ele>383</ele>
        <time>2016-04-23T08:56:34Z</time>
      </trkpt>
      <trkpt lat="45.6543" lon="4.05287">
        <ele>383</ele>
        <time>2016-04-23T08:56:46Z</time>
      </trkpt>
      <trkpt lat="45.6541" lon="4.05283">
        <ele>384</ele>
        <time>2016-04-23T08:57:03Z</time>
      </trkpt>
      <trkpt lat="45.65405" lon="4.05282">
        <ele>384</ele>
        <time>2016-04-23T08:57:07Z</time>
      </trkpt>
      <trkpt lat="45.6537" lon="4.05274">
        <ele>385</ele>
        <time>2016-04-23T08:57:37Z</time>
      </trkpt>
      <trkpt lat="45.65361" lon="4.05271">
        <ele>385</ele>
        <time>2016-04-23T08:57:45Z</time>
      </trkpt>
      <trkpt lat="45.65353" lon="4.05263">
        <ele>386</ele>
        <time>2016-04-23T08:57:53Z</time>
      </trkpt>
      <trkpt lat="45.65341" lon="4.05232">
        <ele>383</ele>
        <time>2016-04-23T08:58:14Z</time>
      </trkpt>
      <trkpt lat="45.65337" lon="4.05227">
        <ele>383</ele>
        <time>2016-04-23T08:58:18Z</time>
      </trkpt>
      <trkpt lat="45.65298" lon="4.05217">
        <ele>385</ele>
        <time>2016-04-23T08:58:53Z</time>
      </trkpt>
      <trkpt lat="45.65283" lon="4.05216">
        <ele>385</ele>
        <time>2016-04-23T08:59:06Z</time>
      </trkpt>
      <trkpt lat="45.65278" lon="4.05216">
        <ele>386</ele>
        <time>2016-04-23T08:59:10Z</time>
      </trkpt>
      <trkpt lat="45.65274" lon="4.05217">
        <ele>386</ele>
        <time>2016-04-23T08:59:14Z</time>
      </trkpt>
      <trkpt lat="45.65259" lon="4.05216">
        <ele>387</ele>
        <time>2016-04-23T08:59:28Z</time>
      </trkpt>
      <trkpt lat="45.65249" lon="4.05212">
        <ele>388</ele>
        <time>2016-04-23T08:59:38Z</time>
      </trkpt>
      <trkpt lat="45.65246" lon="4.05207">
        <ele>389</ele>
        <time>2016-04-23T08:59:43Z</time>
      </trkpt>
      <trkpt lat="45.65238" lon="4.05188">
        <ele>389</ele>
        <time>2016-04-23T08:59:56Z</time>
      </trkpt>
      <trkpt lat="45.65223" lon="4.05166">
        <ele>390</ele>
        <time>2016-04-23T09:00:12Z</time>
      </trkpt>
      <trkpt lat="45.65219" lon="4.0516">
        <ele>390</ele>
        <time>2016-04-23T09:00:16Z</time>
      </trkpt>
      <trkpt lat="45.65207" lon="4.05144">
        <ele>387</ele>
        <time>2016-04-23T09:00:28Z</time>
      </trkpt>
      <trkpt lat="45.65203" lon="4.05141">
        <ele>387</ele>
        <time>2016-04-23T09:00:32Z</time>
      </trkpt>
      <trkpt lat="45.65169" lon="4.05105">
        <ele>388</ele>
        <time>2016-04-23T09:01:04Z</time>
      </trkpt>
      <trkpt lat="45.65164" lon="4.05106">
        <ele>388</ele>
        <time>2016-04-23T09:01:08Z</time>
      </trkpt>
      <trkpt lat="45.65154" lon="4.05105">
        <ele>386</ele>
        <time>2016-04-23T09:01:51Z</time>
      </trkpt>
      <trkpt lat="45.65144" lon="4.05102">
        <ele>385</ele>
        <time>2016-04-23T09:02:00Z</time>
      </trkpt>
      <trkpt lat="45.65141" lon="4.05096">
        <ele>385</ele>
        <time>2016-04-23T09:02:04Z</time>
      </trkpt>
      <trkpt lat="45.65138" lon="4.05091">
        <ele>385</ele>
        <time>2016-04-23T09:02:08Z</time>
      </trkpt>
      <trkpt lat="45.65136" lon="4.05084">
        <ele>385</ele>
        <time>2016-04-23T09:02:13Z</time>
      </trkpt>
      <trkpt lat="45.65135" lon="4.05078">
        <ele>385</ele>
        <time>2016-04-23T09:02:17Z</time>
      </trkpt>
      <trkpt lat="45.65135" lon="4.05057">
        <ele>384</ele>
        <time>2016-04-23T09:02:32Z</time>
      </trkpt>
      <trkpt lat="45.65133" lon="4.0505">
        <ele>384</ele>
        <time>2016-04-23T09:02:37Z</time>
      </trkpt>
      <trkpt lat="45.65129" lon="4.05045">
        <ele>385</ele>
        <time>2016-04-23T09:02:41Z</time>
      </trkpt>
      <trkpt lat="45.6512" lon="4.0504">
        <ele>385</ele>
        <time>2016-04-23T09:02:49Z</time>
      </trkpt>
      <trkpt lat="45.65102" lon="4.05042">
        <ele>387</ele>
        <time>2016-04-23T09:03:18Z</time>
      </trkpt>
      <trkpt lat="45.65097" lon="4.05045">
        <ele>386</ele>
        <time>2016-04-23T09:03:23Z</time>
      </trkpt>
      <trkpt lat="45.65063" lon="4.05054">
        <ele>387</ele>
        <time>2016-04-23T09:03:56Z</time>
      </trkpt>
      <trkpt lat="45.65028" lon="4.05058">
        <ele>388</ele>
        <time>2016-04-23T09:04:27Z</time>
      </trkpt>
      <trkpt lat="45.65018" lon="4.0506">
        <ele>388</ele>
        <time>2016-04-23T09:04:35Z</time>
      </trkpt>
      <trkpt lat="45.65013" lon="4.05061">
        <ele>389</ele>
        <time>2016-04-23T09:04:40Z</time>
      </trkpt>
      <trkpt lat="45.64987" lon="4.05063">
        <ele>390</ele>
        <time>2016-04-23T09:05:06Z</time>
      </trkpt>
      <trkpt lat="45.64982" lon="4.05064">
        <ele>391</ele>
        <time>2016-04-23T09:05:10Z</time>
      </trkpt>
      <trkpt lat="45.64978" lon="4.05065">
        <ele>391</ele>
        <time>2016-04-23T09:05:14Z</time>
      </trkpt>
      <trkpt lat="45.64937" lon="4.05067">
        <ele>394</ele>
        <time>2016-04-23T09:05:48Z</time>
      </trkpt>
      <trkpt lat="45.64901" lon="4.05071">
        <ele>395</ele>
        <time>2016-04-23T09:06:19Z</time>
      </trkpt>
      <trkpt lat="45.64872" lon="4.05074">
        <ele>397</ele>
        <time>2016-04-23T09:06:46Z</time>
      </trkpt>
      <trkpt lat="45.64867" lon="4.05075">
        <ele>396</ele>
        <time>2016-04-23T09:06:51Z</time>
      </trkpt>
      <trkpt lat="45.64847" lon="4.05079">
        <ele>398</ele>
        <time>2016-04-23T09:07:07Z</time>
      </trkpt>
      <trkpt lat="45.64806" lon="4.05086">
        <ele>398</ele>
        <time>2016-04-23T09:07:40Z</time>
      </trkpt>
      <trkpt lat="45.64791" lon="4.05091">
        <ele>400</ele>
        <time>2016-04-23T09:07:52Z</time>
      </trkpt>
      <trkpt lat="45.6478" lon="4.05094">
        <ele>399</ele>
        <time>2016-04-23T09:08:01Z</time>
      </trkpt>
      <trkpt lat="45.64775" lon="4.05095">
        <ele>399</ele>
        <time>2016-04-23T09:08:05Z</time>
      </trkpt>
      <trkpt lat="45.6476" lon="4.05095">
        <ele>398</ele>
        <time>2016-04-23T09:08:17Z</time>
      </trkpt>
      <trkpt lat="45.64747" lon="4.05103">
        <ele>399</ele>
        <time>2016-04-23T09:08:29Z</time>
      </trkpt>
      <trkpt lat="45.64737" lon="4.05104">
        <ele>398</ele>
        <time>2016-04-23T09:08:37Z</time>
      </trkpt>
      <trkpt lat="45.64707" lon="4.0511">
        <ele>399</ele>
        <time>2016-04-23T09:09:01Z</time>
      </trkpt>
      <trkpt lat="45.64702" lon="4.0511">
        <ele>399</ele>
        <time>2016-04-23T09:09:08Z</time>
      </trkpt>
      <trkpt lat="45.64686" lon="4.05111">
        <ele>400</ele>
        <time>2016-04-23T09:09:21Z</time>
      </trkpt>
      <trkpt lat="45.64683" lon="4.05104">
        <ele>400</ele>
        <time>2016-04-23T09:09:26Z</time>
      </trkpt>
      <trkpt lat="45.64685" lon="4.05098">
        <ele>400</ele>
        <time>2016-04-23T09:09:30Z</time>
      </trkpt>
      <trkpt lat="45.64686" lon="4.05091">
        <ele>401</ele>
        <time>2016-04-23T09:09:34Z</time>
      </trkpt>
      <trkpt lat="45.64688" lon="4.0507">
        <ele>401</ele>
        <time>2016-04-23T09:09:48Z</time>
      </trkpt>
      <trkpt lat="45.6469" lon="4.05063">
        <ele>402</ele>
        <time>2016-04-23T09:10:02Z</time>
      </trkpt>
      <trkpt lat="45.64685" lon="4.05038">
        <ele>403</ele>
        <time>2016-04-23T09:10:15Z</time>
      </trkpt>
      <trkpt lat="45.6468" lon="4.05037">
        <ele>403</ele>
        <time>2016-04-23T09:10:21Z</time>
      </trkpt>
      <trkpt lat="45.64675" lon="4.0504">
        <ele>403</ele>
        <time>2016-04-23T09:10:25Z</time>
      </trkpt>
      <trkpt lat="45.64666" lon="4.0504">
        <ele>401</ele>
        <time>2016-04-23T09:10:35Z</time>
      </trkpt>
      <trkpt lat="45.64657" lon="4.05045">
        <ele>403</ele>
        <time>2016-04-23T09:10:43Z</time>
      </trkpt>
      <trkpt lat="45.64652" lon="4.05047">
        <ele>402</ele>
        <time>2016-04-23T09:10:48Z</time>
      </trkpt>
      <trkpt lat="45.64647" lon="4.05049">
        <ele>401</ele>
        <time>2016-04-23T09:10:52Z</time>
      </trkpt>
      <trkpt lat="45.64643" lon="4.05052">
        <ele>400</ele>
        <time>2016-04-23T09:10:56Z</time>
      </trkpt>
      <trkpt lat="45.6462" lon="4.05062">
        <ele>404</ele>
        <time>2016-04-23T09:11:16Z</time>
      </trkpt>
      <trkpt lat="45.64617" lon="4.05056">
        <ele>404</ele>
        <time>2016-04-23T09:11:20Z</time>
      </trkpt>
      <trkpt lat="45.64616" lon="4.05047">
        <ele>404</ele>
        <time>2016-04-23T09:11:32Z</time>
      </trkpt>
      <trkpt lat="45.64616" lon="4.05041">
        <ele>404</ele>
        <time>2016-04-23T09:11:36Z</time>
      </trkpt>
      <trkpt lat="45.64618" lon="4.05034">
        <ele>404</ele>
        <time>2016-04-23T09:11:40Z</time>
      </trkpt>
      <trkpt lat="45.64631" lon="4.04981">
        <ele>404</ele>
        <time>2016-04-23T09:12:12Z</time>
      </trkpt>
      <trkpt lat="45.64632" lon="4.04973">
        <ele>403</ele>
        <time>2016-04-23T09:12:41Z</time>
      </trkpt>
      <trkpt lat="45.64635" lon="4.04958">
        <ele>404</ele>
        <time>2016-04-23T09:12:51Z</time>
      </trkpt>
      <trkpt lat="45.64636" lon="4.04951">
        <ele>403</ele>
        <time>2016-04-23T09:12:56Z</time>
      </trkpt>
      <trkpt lat="45.64637" lon="4.04943">
        <ele>403</ele>
        <time>2016-04-23T09:13:00Z</time>
      </trkpt>
      <trkpt lat="45.64639" lon="4.04937">
        <ele>403</ele>
        <time>2016-04-23T09:13:04Z</time>
      </trkpt>
      <trkpt lat="45.64639" lon="4.04928">
        <ele>403</ele>
        <time>2016-04-23T09:13:08Z</time>
      </trkpt>
      <trkpt lat="45.64641" lon="4.04918">
        <ele>404</ele>
        <time>2016-04-23T09:13:14Z</time>
      </trkpt>
      <trkpt lat="45.64643" lon="4.04912">
        <ele>404</ele>
        <time>2016-04-23T09:13:19Z</time>
      </trkpt>
      <trkpt lat="45.64645" lon="4.04906">
        <ele>405</ele>
        <time>2016-04-23T09:14:14Z</time>
      </trkpt>
      <trkpt lat="45.64647" lon="4.04899">
        <ele>404</ele>
        <time>2016-04-23T09:14:19Z</time>
      </trkpt>
      <trkpt lat="45.6465" lon="4.04886">
        <ele>405</ele>
        <time>2016-04-23T09:14:27Z</time>
      </trkpt>
      <trkpt lat="45.64662" lon="4.04836">
        <ele>405</ele>
        <time>2016-04-23T09:14:54Z</time>
      </trkpt>
      <trkpt lat="45.64662" lon="4.04828">
        <ele>406</ele>
        <time>2016-04-23T09:14:58Z</time>
      </trkpt>
      <trkpt lat="45.64667" lon="4.04777">
        <ele>407</ele>
        <time>2016-04-23T09:15:25Z</time>
      </trkpt>
      <trkpt lat="45.64669" lon="4.0477">
        <ele>406</ele>
        <time>2016-04-23T09:15:29Z</time>
      </trkpt>
      <trkpt lat="45.64672" lon="4.04764">
        <ele>406</ele>
        <time>2016-04-23T09:15:33Z</time>
      </trkpt>
      <trkpt lat="45.64675" lon="4.0475">
        <ele>406</ele>
        <time>2016-04-23T09:15:41Z</time>
      </trkpt>
      <trkpt lat="45.64681" lon="4.04716">
        <ele>407</ele>
        <time>2016-04-23T09:16:02Z</time>
      </trkpt>
      <trkpt lat="45.64678" lon="4.04712">
        <ele>407</ele>
        <time>2016-04-23T09:16:34Z</time>
      </trkpt>
      <trkpt lat="45.64677" lon="4.0471">
        <ele>406</ele>
        <time>2016-04-23T09:16:40Z</time>
      </trkpt>
      <trkpt lat="45.64672" lon="4.04708">
        <ele>405</ele>
        <time>2016-04-23T09:16:45Z</time>
      </trkpt>
      <trkpt lat="45.64667" lon="4.04705">
        <ele>405</ele>
        <time>2016-04-23T09:16:49Z</time>
      </trkpt>
      <trkpt lat="45.64663" lon="4.04705">
        <ele>404</ele>
        <time>2016-04-23T09:16:52Z</time>
      </trkpt>
      <trkpt lat="45.64624" lon="4.04695">
        <ele>404</ele>
        <time>2016-04-23T09:17:24Z</time>
      </trkpt>
      <trkpt lat="45.64614" lon="4.04689">
        <ele>403</ele>
        <time>2016-04-23T09:17:34Z</time>
      </trkpt>
      <trkpt lat="45.6461" lon="4.04686">
        <ele>404</ele>
        <time>2016-04-23T09:17:41Z</time>
      </trkpt>
      <trkpt lat="45.646" lon="4.04685">
        <ele>404</ele>
        <time>2016-04-23T09:18:07Z</time>
      </trkpt>
      <trkpt lat="45.64566" lon="4.04672">
        <ele>403</ele>
        <time>2016-04-23T09:18:40Z</time>
      </trkpt>
      <trkpt lat="45.64556" lon="4.0467">
        <ele>403</ele>
        <time>2016-04-23T09:18:49Z</time>
      </trkpt>
      <trkpt lat="45.64553" lon="4.04665">
        <ele>403</ele>
        <time>2016-04-23T09:18:53Z</time>
      </trkpt>
      <trkpt lat="45.6455" lon="4.04662">
        <ele>403</ele>
        <time>2016-04-23T09:19:02Z</time>
      </trkpt>
      <trkpt lat="45.64547" lon="4.04656">
        <ele>402</ele>
        <time>2016-04-23T09:19:10Z</time>
      </trkpt>
      <trkpt lat="45.64531" lon="4.04649">
        <ele>394</ele>
        <time>2016-04-23T09:19:27Z</time>
      </trkpt>
      <trkpt lat="45.64525" lon="4.04648">
        <ele>394</ele>
        <time>2016-04-23T09:19:31Z</time>
      </trkpt>
      <trkpt lat="45.64512" lon="4.04638">
        <ele>398</ele>
        <time>2016-04-23T09:19:44Z</time>
      </trkpt>
      <trkpt lat="45.64511" lon="4.04634">
        <ele>401</ele>
        <time>2016-04-23T09:19:52Z</time>
      </trkpt>
      <trkpt lat="45.64511" lon="4.04628">
        <ele>401</ele>
        <time>2016-04-23T09:20:28Z</time>
      </trkpt>
      <trkpt lat="45.64507" lon="4.04623">
        <ele>401</ele>
        <time>2016-04-23T09:20:32Z</time>
      </trkpt>
      <trkpt lat="45.64506" lon="4.04615">
        <ele>401</ele>
        <time>2016-04-23T09:20:35Z</time>
      </trkpt>
      <trkpt lat="45.64507" lon="4.04608">
        <ele>401</ele>
        <time>2016-04-23T09:20:39Z</time>
      </trkpt>
      <trkpt lat="45.64515" lon="4.04598">
        <ele>402</ele>
        <time>2016-04-23T09:20:48Z</time>
      </trkpt>
      <trkpt lat="45.64518" lon="4.04591">
        <ele>401</ele>
        <time>2016-04-23T09:21:07Z</time>
      </trkpt>
      <trkpt lat="45.64522" lon="4.04577">
        <ele>400</ele>
        <time>2016-04-23T09:21:16Z</time>
      </trkpt>
      <trkpt lat="45.64526" lon="4.04556">
        <ele>400</ele>
        <time>2016-04-23T09:21:29Z</time>
      </trkpt>
      <trkpt lat="45.64527" lon="4.04542">
        <ele>400</ele>
        <time>2016-04-23T09:21:39Z</time>
      </trkpt>
      <trkpt lat="45.64528" lon="4.04535">
        <ele>399</ele>
        <time>2016-04-23T09:21:44Z</time>
      </trkpt>
      <trkpt lat="45.64525" lon="4.0453">
        <ele>399</ele>
        <time>2016-04-23T09:21:49Z</time>
      </trkpt>
      <trkpt lat="45.64524" lon="4.04527">
        <ele>401</ele>
        <time>2016-04-23T09:22:06Z</time>
      </trkpt>
      <trkpt lat="45.64519" lon="4.04525">
        <ele>402</ele>
        <time>2016-04-23T09:22:12Z</time>
      </trkpt>
      <trkpt lat="45.64514" lon="4.04524">
        <ele>401</ele>
        <time>2016-04-23T09:22:17Z</time>
      </trkpt>
      <trkpt lat="45.64491" lon="4.04534">
        <ele>401</ele>
        <time>2016-04-23T09:22:32Z</time>
      </trkpt>
      <trkpt lat="45.64489" lon="4.04527">
        <ele>403</ele>
        <time>2016-04-23T09:23:20Z</time>
      </trkpt>
      <trkpt lat="45.64484" lon="4.04524">
        <ele>402</ele>
        <time>2016-04-23T09:23:21Z</time>
      </trkpt>
      <trkpt lat="45.6448" lon="4.04519">
        <ele>402</ele>
        <time>2016-04-23T09:23:22Z</time>
      </trkpt>
      <trkpt lat="45.64468" lon="4.04523">
        <ele>401</ele>
        <time>2016-04-23T09:23:29Z</time>
      </trkpt>
      <trkpt lat="45.64451" lon="4.04556">
        <ele>405</ele>
        <time>2016-04-23T09:23:51Z</time>
      </trkpt>
      <trkpt lat="45.64444" lon="4.04546">
        <ele>407</ele>
        <time>2016-04-23T09:23:57Z</time>
      </trkpt>
      <trkpt lat="45.64444" lon="4.0453">
        <ele>407</ele>
        <time>2016-04-23T09:24:06Z</time>
      </trkpt>
      <trkpt lat="45.64441" lon="4.04526">
        <ele>404</ele>
        <time>2016-04-23T09:25:02Z</time>
      </trkpt>
      <trkpt lat="45.64437" lon="4.04531">
        <ele>404</ele>
        <time>2016-04-23T09:33:45Z</time>
      </trkpt>
      <trkpt lat="45.64432" lon="4.04518">
        <ele>404</ele>
        <time>2016-04-23T09:34:15Z</time>
      </trkpt>
      <trkpt lat="45.64439" lon="4.04524">
        <ele>404</ele>
        <time>2016-04-23T09:36:36Z</time>
      </trkpt>
      <trkpt lat="45.64441" lon="4.04537">
        <ele>404</ele>
        <time>2016-04-23T09:36:51Z</time>
      </trkpt>
      <trkpt lat="45.64438" lon="4.04536">
        <ele>404</ele>
        <time>2016-04-23T09:37:09Z</time>
      </trkpt>
      <trkpt lat="45.64437" lon="4.04529">
        <ele>404</ele>
        <time>2016-04-23T09:37:28Z</time>
      </trkpt>
      <trkpt lat="45.64437" lon="4.04526">
        <ele>404</ele>
        <time>2016-04-23T09:37:40Z</time>
      </trkpt>
      <trkpt lat="45.64437" lon="4.04518">
        <ele>404</ele>
        <time>2016-04-23T09:37:51Z</time>
      </trkpt>
      <trkpt lat="45.64435" lon="4.04519">
        <ele>404</ele>
        <time>2016-04-23T09:38:03Z</time>
      </trkpt>
      <trkpt lat="45.64431" lon="4.04524">
        <ele>404</ele>
        <time>2016-04-23T09:38:10Z</time>
      </trkpt>
      <trkpt lat="45.64428" lon="4.04538">
        <ele>404</ele>
        <time>2016-04-23T09:38:21Z</time>
      </trkpt>
      <trkpt lat="45.64426" lon="4.04535">
        <ele>404</ele>
        <time>2016-04-23T09:38:44Z</time>
      </trkpt>
      <trkpt lat="45.64431" lon="4.04522">
        <ele>404</ele>
        <time>2016-04-23T09:38:59Z</time>
      </trkpt>
      <trkpt lat="45.64435" lon="4.04525">
        <ele>405</ele>
        <time>2016-04-23T09:39:03Z</time>
      </trkpt>
      <trkpt lat="45.64438" lon="4.04531">
        <ele>404</ele>
        <time>2016-04-23T09:39:06Z</time>
      </trkpt>
      <trkpt lat="45.64439" lon="4.04537">
        <ele>404</ele>
        <time>2016-04-23T09:39:12Z</time>
      </trkpt>
      <trkpt lat="45.64445" lon="4.0456">
        <ele>404</ele>
        <time>2016-04-23T09:46:30Z</time>
      </trkpt>
      <trkpt lat="45.64445" lon="4.04548">
        <ele>402</ele>
        <time>2016-04-23T09:46:33Z</time>
      </trkpt>
      <trkpt lat="45.64447" lon="4.04541">
        <ele>399</ele>
        <time>2016-04-23T09:46:36Z</time>
      </trkpt>
      <trkpt lat="45.64451" lon="4.04537">
        <ele>397</ele>
        <time>2016-04-23T09:46:40Z</time>
      </trkpt>
      <trkpt lat="45.64455" lon="4.04531">
        <ele>397</ele>
        <time>2016-04-23T09:46:44Z</time>
      </trkpt>
      <trkpt lat="45.64458" lon="4.04531">
        <ele>397</ele>
        <time>2016-04-23T09:46:51Z</time>
      </trkpt>
      <trkpt lat="45.64463" lon="4.04533">
        <ele>397</ele>
        <time>2016-04-23T09:47:02Z</time>
      </trkpt>
      <trkpt lat="45.64467" lon="4.04536">
        <ele>397</ele>
        <time>2016-04-23T09:47:09Z</time>
      </trkpt>
      <trkpt lat="45.64473" lon="4.04535">
        <ele>398</ele>
        <time>2016-04-23T09:47:15Z</time>
      </trkpt>
      <trkpt lat="45.64475" lon="4.04542">
        <ele>401</ele>
        <time>2016-04-23T09:47:21Z</time>
      </trkpt>
      <trkpt lat="45.64473" lon="4.04549">
        <ele>402</ele>
        <time>2016-04-23T09:47:26Z</time>
      </trkpt>
      <trkpt lat="45.64469" lon="4.04559">
        <ele>405</ele>
        <time>2016-04-23T09:47:40Z</time>
      </trkpt>
      <trkpt lat="45.64471" lon="4.04563">
        <ele>405</ele>
        <time>2016-04-23T09:47:58Z</time>
      </trkpt>
      <trkpt lat="45.64469" lon="4.04567">
        <ele>404</ele>
        <time>2016-04-23T09:48:09Z</time>
      </trkpt>
      <trkpt lat="45.64451" lon="4.04538">
        <ele>404</ele>
        <time>2016-04-23T09:48:30Z</time>
      </trkpt>
      <trkpt lat="45.64446" lon="4.04551">
        <ele>404</ele>
        <time>2016-04-23T09:48:33Z</time>
      </trkpt>
      <trkpt lat="45.6445" lon="4.04563">
        <ele>403</ele>
        <time>2016-04-23T09:48:45Z</time>
      </trkpt>
      <trkpt lat="45.6446" lon="4.04549">
        <ele>403</ele>
        <time>2016-04-23T09:49:41Z</time>
      </trkpt>
      <trkpt lat="45.64459" lon="4.04556">
        <ele>403</ele>
        <time>2016-04-23T09:49:47Z</time>
      </trkpt>
      <trkpt lat="45.64465" lon="4.04557">
        <ele>402</ele>
        <time>2016-04-23T09:49:50Z</time>
      </trkpt>
      <trkpt lat="45.64469" lon="4.04553">
        <ele>399</ele>
        <time>2016-04-23T09:49:54Z</time>
      </trkpt>
      <trkpt lat="45.64473" lon="4.04533">
        <ele>394</ele>
        <time>2016-04-23T09:50:09Z</time>
      </trkpt>
      <trkpt lat="45.64469" lon="4.0453">
        <ele>395</ele>
        <time>2016-04-23T09:50:13Z</time>
      </trkpt>
      <trkpt lat="45.64464" lon="4.04529">
        <ele>395</ele>
        <time>2016-04-23T09:50:16Z</time>
      </trkpt>
      <trkpt lat="45.64449" lon="4.04534">
        <ele>398</ele>
        <time>2016-04-23T09:50:29Z</time>
      </trkpt>
      <trkpt lat="45.64443" lon="4.04533">
        <ele>398</ele>
        <time>2016-04-23T09:50:34Z</time>
      </trkpt>
      <trkpt lat="45.64423" lon="4.04527">
        <ele>405</ele>
        <time>2016-04-23T09:50:54Z</time>
      </trkpt>
      <trkpt lat="45.64423" lon="4.04527">
        <ele>404</ele>
        <time>2016-04-23T09:51:24Z</time>
      </trkpt>
      <trkpt lat="45.64424" lon="4.0452">
        <ele>404</ele>
        <time>2016-04-23T09:51:29Z</time>
      </trkpt>
      <trkpt lat="45.6442" lon="4.04516">
        <ele>404</ele>
        <time>2016-04-23T09:51:33Z</time>
      </trkpt>
      <trkpt lat="45.64411" lon="4.04515">
        <ele>401</ele>
        <time>2016-04-23T09:51:40Z</time>
      </trkpt>
      <trkpt lat="45.64395" lon="4.04518">
        <ele>397</ele>
        <time>2016-04-23T09:51:54Z</time>
      </trkpt>
      <trkpt lat="45.64404" lon="4.04517">
        <ele>403</ele>
        <time>2016-04-23T09:53:59Z</time>
      </trkpt>
      <trkpt lat="45.64408" lon="4.04518">
        <ele>402</ele>
        <time>2016-04-23T09:54:03Z</time>
      </trkpt>
      <trkpt lat="45.64419" lon="4.0452">
        <ele>402</ele>
        <time>2016-04-23T09:54:13Z</time>
      </trkpt>
      <trkpt lat="45.64444" lon="4.04526">
        <ele>399</ele>
        <time>2016-04-23T09:54:35Z</time>
      </trkpt>
      <trkpt lat="45.64448" lon="4.04526">
        <ele>399</ele>
        <time>2016-04-23T09:54:39Z</time>
      </trkpt>
      <trkpt lat="45.64453" lon="4.04529">
        <ele>399</ele>
        <time>2016-04-23T09:54:46Z</time>
      </trkpt>
      <trkpt lat="45.64458" lon="4.0453">
        <ele>399</ele>
        <time>2016-04-23T09:54:51Z</time>
      </trkpt>
      <trkpt lat="45.64463" lon="4.0453">
        <ele>399</ele>
        <time>2016-04-23T09:54:55Z</time>
      </trkpt>
      <trkpt lat="45.64468" lon="4.04527">
        <ele>399</ele>
        <time>2016-04-23T09:54:59Z</time>
      </trkpt>
      <trkpt lat="45.64473" lon="4.04528">
        <ele>399</ele>
        <time>2016-04-23T09:55:03Z</time>
      </trkpt>
      <trkpt lat="45.64482" lon="4.04522">
        <ele>399</ele>
        <time>2016-04-23T09:55:10Z</time>
      </trkpt>
      <trkpt lat="45.64491" lon="4.04521">
        <ele>398</ele>
        <time>2016-04-23T09:55:16Z</time>
      </trkpt>
      <trkpt lat="45.64501" lon="4.04521">
        <ele>397</ele>
        <time>2016-04-23T09:55:29Z</time>
      </trkpt>
      <trkpt lat="45.64506" lon="4.04521">
        <ele>397</ele>
        <time>2016-04-23T09:55:37Z</time>
      </trkpt>
      <trkpt lat="45.64505" lon="4.04525">
        <ele>397</ele>
        <time>2016-04-23T09:55:43Z</time>
      </trkpt>
      <trkpt lat="45.64515" lon="4.04523">
        <ele>398</ele>
        <time>2016-04-23T09:55:56Z</time>
      </trkpt>
      <trkpt lat="45.64524" lon="4.04522">
        <ele>400</ele>
        <time>2016-04-23T09:56:02Z</time>
      </trkpt>
      <trkpt lat="45.64527" lon="4.04527">
        <ele>401</ele>
        <time>2016-04-23T09:56:05Z</time>
      </trkpt>
      <trkpt lat="45.64529" lon="4.04535">
        <ele>402</ele>
        <time>2016-04-23T09:56:08Z</time>
      </trkpt>
      <trkpt lat="45.64529" lon="4.04542">
        <ele>402</ele>
        <time>2016-04-23T09:56:12Z</time>
      </trkpt>
      <trkpt lat="45.64518" lon="4.04568">
        <ele>398</ele>
        <time>2016-04-23T09:56:28Z</time>
      </trkpt>
      <trkpt lat="45.64511" lon="4.04595">
        <ele>400</ele>
        <time>2016-04-23T09:56:44Z</time>
      </trkpt>
      <trkpt lat="45.64508" lon="4.04602">
        <ele>401</ele>
        <time>2016-04-23T09:56:49Z</time>
      </trkpt>
      <trkpt lat="45.64507" lon="4.04609">
        <ele>400</ele>
        <time>2016-04-23T09:56:54Z</time>
      </trkpt>
      <trkpt lat="45.64506" lon="4.04615">
        <ele>399</ele>
        <time>2016-04-23T09:56:59Z</time>
      </trkpt>
      <trkpt lat="45.645" lon="4.04614">
        <ele>397</ele>
        <time>2016-04-23T09:57:07Z</time>
      </trkpt>
      <trkpt lat="45.64496" lon="4.04612">
        <ele>397</ele>
        <time>2016-04-23T09:57:12Z</time>
      </trkpt>
      <trkpt lat="45.64486" lon="4.04617">
        <ele>397</ele>
        <time>2016-04-23T09:57:23Z</time>
      </trkpt>
      <trkpt lat="45.64477" lon="4.04623">
        <ele>396</ele>
        <time>2016-04-23T09:57:31Z</time>
      </trkpt>
      <trkpt lat="45.64472" lon="4.04624">
        <ele>396</ele>
        <time>2016-04-23T09:57:37Z</time>
      </trkpt>
      <trkpt lat="45.64467" lon="4.04625">
        <ele>397</ele>
        <time>2016-04-23T09:57:41Z</time>
      </trkpt>
      <trkpt lat="45.64441" lon="4.04624">
        <ele>396</ele>
        <time>2016-04-23T09:58:03Z</time>
      </trkpt>
      <trkpt lat="45.64431" lon="4.0462">
        <ele>397</ele>
        <time>2016-04-23T09:58:12Z</time>
      </trkpt>
      <trkpt lat="45.64427" lon="4.04615">
        <ele>397</ele>
        <time>2016-04-23T09:58:17Z</time>
      </trkpt>
      <trkpt lat="45.64418" lon="4.04613">
        <ele>397</ele>
        <time>2016-04-23T09:58:25Z</time>
      </trkpt>
      <trkpt lat="45.64408" lon="4.04609">
        <ele>398</ele>
        <time>2016-04-23T09:58:33Z</time>
      </trkpt>
      <trkpt lat="45.64404" lon="4.04605">
        <ele>398</ele>
        <time>2016-04-23T09:58:38Z</time>
      </trkpt>
      <trkpt lat="45.6438" lon="4.04593">
        <ele>399</ele>
        <time>2016-04-23T09:59:02Z</time>
      </trkpt>
      <trkpt lat="45.64372" lon="4.04598">
        <ele>400</ele>
        <time>2016-04-23T09:59:10Z</time>
      </trkpt>
      <trkpt lat="45.64367" lon="4.04601">
        <ele>400</ele>
        <time>2016-04-23T09:59:16Z</time>
      </trkpt>
      <trkpt lat="45.64363" lon="4.04604">
        <ele>400</ele>
        <time>2016-04-23T09:59:20Z</time>
      </trkpt>
      <trkpt lat="45.64353" lon="4.04606">
        <ele>401</ele>
        <time>2016-04-23T09:59:28Z</time>
      </trkpt>
      <trkpt lat="45.64348" lon="4.04607">
        <ele>400</ele>
        <time>2016-04-23T09:59:33Z</time>
      </trkpt>
      <trkpt lat="45.64338" lon="4.04608">
        <ele>402</ele>
        <time>2016-04-23T09:59:44Z</time>
      </trkpt>
      <trkpt lat="45.64332" lon="4.04608">
        <ele>402</ele>
        <time>2016-04-23T09:59:49Z</time>
      </trkpt>
      <trkpt lat="45.64328" lon="4.04608">
        <ele>402</ele>
        <time>2016-04-23T09:59:53Z</time>
      </trkpt>
      <trkpt lat="45.64324" lon="4.04613">
        <ele>402</ele>
        <time>2016-04-23T09:59:58Z</time>
      </trkpt>
      <trkpt lat="45.64317" lon="4.04647">
        <ele>401</ele>
        <time>2016-04-23T10:00:22Z</time>
      </trkpt>
      <trkpt lat="45.64309" lon="4.04655">
        <ele>399</ele>
        <time>2016-04-23T10:00:38Z</time>
      </trkpt>
      <trkpt lat="45.64298" lon="4.04656">
        <ele>398</ele>
        <time>2016-04-23T10:00:47Z</time>
      </trkpt>
      <trkpt lat="45.64294" lon="4.04657">
        <ele>398</ele>
        <time>2016-04-23T10:00:51Z</time>
      </trkpt>
      <trkpt lat="45.64289" lon="4.04657">
        <ele>397</ele>
        <time>2016-04-23T10:00:55Z</time>
      </trkpt>
      <trkpt lat="45.64275" lon="4.04652">
        <ele>396</ele>
        <time>2016-04-23T10:01:08Z</time>
      </trkpt>
      <trkpt lat="45.6427" lon="4.0465">
        <ele>395</ele>
        <time>2016-04-23T10:01:13Z</time>
      </trkpt>
      <trkpt lat="45.64234" lon="4.04637">
        <ele>391</ele>
        <time>2016-04-23T10:01:45Z</time>
      </trkpt>
      <trkpt lat="45.64225" lon="4.04632">
        <ele>391</ele>
        <time>2016-04-23T10:01:53Z</time>
      </trkpt>
      <trkpt lat="45.64221" lon="4.0463">
        <ele>391</ele>
        <time>2016-04-23T10:01:57Z</time>
      </trkpt>
      <trkpt lat="45.64197" lon="4.04626">
        <ele>395</ele>
        <time>2016-04-23T10:02:18Z</time>
      </trkpt>
      <trkpt lat="45.64192" lon="4.04629">
        <ele>396</ele>
        <time>2016-04-23T10:02:22Z</time>
      </trkpt>
      <trkpt lat="45.64175" lon="4.04664">
        <ele>390</ele>
        <time>2016-04-23T10:02:51Z</time>
      </trkpt>
      <trkpt lat="45.64174" lon="4.04671">
        <ele>391</ele>
        <time>2016-04-23T10:02:56Z</time>
      </trkpt>
      <trkpt lat="45.64174" lon="4.04678">
        <ele>393</ele>
        <time>2016-04-23T10:03:06Z</time>
      </trkpt>
      <trkpt lat="45.64169" lon="4.04705">
        <ele>394</ele>
        <time>2016-04-23T10:03:24Z</time>
      </trkpt>
      <trkpt lat="45.64168" lon="4.04712">
        <ele>394</ele>
        <time>2016-04-23T10:03:28Z</time>
      </trkpt>
      <trkpt lat="45.64165" lon="4.04725">
        <ele>395</ele>
        <time>2016-04-23T10:03:36Z</time>
      </trkpt>
      <trkpt lat="45.64159" lon="4.04745">
        <ele>395</ele>
        <time>2016-04-23T10:03:50Z</time>
      </trkpt>
      <trkpt lat="45.64155" lon="4.04749">
        <ele>395</ele>
        <time>2016-04-23T10:04:05Z</time>
      </trkpt>
      <trkpt lat="45.64154" lon="4.04758">
        <ele>395</ele>
        <time>2016-04-23T10:04:14Z</time>
      </trkpt>
      <trkpt lat="45.64139" lon="4.04808">
        <ele>395</ele>
        <time>2016-04-23T10:04:46Z</time>
      </trkpt>
      <trkpt lat="45.64137" lon="4.04815">
        <ele>395</ele>
        <time>2016-04-23T10:04:51Z</time>
      </trkpt>
      <trkpt lat="45.64135" lon="4.04821">
        <ele>395</ele>
        <time>2016-04-23T10:04:55Z</time>
      </trkpt>
      <trkpt lat="45.64132" lon="4.04828">
        <ele>395</ele>
        <time>2016-04-23T10:05:00Z</time>
      </trkpt>
      <trkpt lat="45.64104" lon="4.04859">
        <ele>396</ele>
        <time>2016-04-23T10:05:33Z</time>
      </trkpt>
      <trkpt lat="45.64075" lon="4.0487">
        <ele>396</ele>
        <time>2016-04-23T10:06:01Z</time>
      </trkpt>
      <trkpt lat="45.64065" lon="4.04873">
        <ele>396</ele>
        <time>2016-04-23T10:06:11Z</time>
      </trkpt>
      <trkpt lat="45.6403" lon="4.04882">
        <ele>397</ele>
        <time>2016-04-23T10:06:43Z</time>
      </trkpt>
      <trkpt lat="45.64012" lon="4.04888">
        <ele>398</ele>
        <time>2016-04-23T10:07:12Z</time>
      </trkpt>
      <trkpt lat="45.64005" lon="4.04888">
        <ele>399</ele>
        <time>2016-04-23T10:07:45Z</time>
      </trkpt>
      <trkpt lat="45.63995" lon="4.04889">
        <ele>400</ele>
        <time>2016-04-23T10:07:59Z</time>
      </trkpt>
      <trkpt lat="45.63989" lon="4.04889">
        <ele>400</ele>
        <time>2016-04-23T10:08:03Z</time>
      </trkpt>
      <trkpt lat="45.63973" lon="4.04894">
        <ele>399</ele>
        <time>2016-04-23T10:08:15Z</time>
      </trkpt>
      <trkpt lat="45.63967" lon="4.04895">
        <ele>398</ele>
        <time>2016-04-23T10:08:20Z</time>
      </trkpt>
      <trkpt lat="45.63962" lon="4.04895">
        <ele>398</ele>
        <time>2016-04-23T10:08:24Z</time>
      </trkpt>
      <trkpt lat="45.63957" lon="4.04894">
        <ele>398</ele>
        <time>2016-04-23T10:08:29Z</time>
      </trkpt>
      <trkpt lat="45.63951" lon="4.04891">
        <ele>398</ele>
        <time>2016-04-23T10:08:40Z</time>
      </trkpt>
      <trkpt lat="45.63947" lon="4.04889">
        <ele>400</ele>
        <time>2016-04-23T10:08:46Z</time>
      </trkpt>
      <trkpt lat="45.63944" lon="4.04885">
        <ele>400</ele>
        <time>2016-04-23T10:08:51Z</time>
      </trkpt>
      <trkpt lat="45.6394" lon="4.04881">
        <ele>400</ele>
        <time>2016-04-23T10:08:56Z</time>
      </trkpt>
      <trkpt lat="45.63938" lon="4.04877">
        <ele>400</ele>
        <time>2016-04-23T10:09:03Z</time>
      </trkpt>
      <trkpt lat="45.63941" lon="4.04877">
        <ele>398</ele>
        <time>2016-04-23T10:20:50Z</time>
      </trkpt>
      <trkpt lat="45.63942" lon="4.04871">
        <ele>396</ele>
        <time>2016-04-23T10:36:24Z</time>
      </trkpt>
      <trkpt lat="45.63939" lon="4.04868">
        <ele>396</ele>
        <time>2016-04-23T10:42:54Z</time>
      </trkpt>
      <trkpt lat="45.6394" lon="4.04872">
        <ele>396</ele>
        <time>2016-04-23T10:47:14Z</time>
      </trkpt>
      <trkpt lat="45.63939" lon="4.04877">
        <ele>396</ele>
        <time>2016-04-23T10:49:53Z</time>
      </trkpt>
      <trkpt lat="45.63934" lon="4.04877">
        <ele>396</ele>
        <time>2016-04-23T10:49:56Z</time>
      </trkpt>
      <trkpt lat="45.63919" lon="4.0488">
        <ele>393</ele>
        <time>2016-04-23T10:50:07Z</time>
      </trkpt>
      <trkpt lat="45.63913" lon="4.04881">
        <ele>393</ele>
        <time>2016-04-23T10:50:12Z</time>
      </trkpt>
      <trkpt lat="45.63898" lon="4.04887">
        <ele>397</ele>
        <time>2016-04-23T10:50:25Z</time>
      </trkpt>
      <trkpt lat="45.63894" lon="4.04889">
        <ele>397</ele>
        <time>2016-04-23T10:50:29Z</time>
      </trkpt>
      <trkpt lat="45.6389" lon="4.04892">
        <ele>397</ele>
        <time>2016-04-23T10:50:33Z</time>
      </trkpt>
      <trkpt lat="45.63861" lon="4.04922">
        <ele>399</ele>
        <time>2016-04-23T10:51:04Z</time>
      </trkpt>
      <trkpt lat="45.63828" lon="4.04951">
        <ele>401</ele>
        <time>2016-04-23T10:51:37Z</time>
      </trkpt>
      <trkpt lat="45.63819" lon="4.04958">
        <ele>401</ele>
        <time>2016-04-23T10:51:46Z</time>
      </trkpt>
      <trkpt lat="45.63801" lon="4.04968">
        <ele>399</ele>
        <time>2016-04-23T10:52:03Z</time>
      </trkpt>
      <trkpt lat="45.63779" lon="4.04984">
        <ele>399</ele>
        <time>2016-04-23T10:52:24Z</time>
      </trkpt>
      <trkpt lat="45.63775" lon="4.04988">
        <ele>400</ele>
        <time>2016-04-23T10:52:28Z</time>
      </trkpt>
      <trkpt lat="45.63758" lon="4.05002">
        <ele>400</ele>
        <time>2016-04-23T10:52:45Z</time>
      </trkpt>
      <trkpt lat="45.63749" lon="4.05008">
        <ele>400</ele>
        <time>2016-04-23T10:52:53Z</time>
      </trkpt>
      <trkpt lat="45.63715" lon="4.05037">
        <ele>401</ele>
        <time>2016-04-23T10:53:27Z</time>
      </trkpt>
      <trkpt lat="45.63707" lon="4.05045">
        <ele>402</ele>
        <time>2016-04-23T10:53:35Z</time>
      </trkpt>
      <trkpt lat="45.637" lon="4.05053">
        <ele>401</ele>
        <time>2016-04-23T10:53:43Z</time>
      </trkpt>
      <trkpt lat="45.63669" lon="4.05085">
        <ele>402</ele>
        <time>2016-04-23T10:54:16Z</time>
      </trkpt>
      <trkpt lat="45.63665" lon="4.05089">
        <ele>402</ele>
        <time>2016-04-23T10:54:20Z</time>
      </trkpt>
      <trkpt lat="45.63638" lon="4.05122">
        <ele>402</ele>
        <time>2016-04-23T10:54:50Z</time>
      </trkpt>
      <trkpt lat="45.63634" lon="4.05126">
        <ele>402</ele>
        <time>2016-04-23T10:54:54Z</time>
      </trkpt>
      <trkpt lat="45.63626" lon="4.05135">
        <ele>401</ele>
        <time>2016-04-23T10:55:02Z</time>
      </trkpt>
      <trkpt lat="45.63608" lon="4.05158">
        <ele>402</ele>
        <time>2016-04-23T10:55:23Z</time>
      </trkpt>
      <trkpt lat="45.63585" lon="4.05193">
        <ele>400</ele>
        <time>2016-04-23T10:55:54Z</time>
      </trkpt>
      <trkpt lat="45.63581" lon="4.05198">
        <ele>400</ele>
        <time>2016-04-23T10:55:59Z</time>
      </trkpt>
      <trkpt lat="45.63569" lon="4.05222">
        <ele>392</ele>
        <time>2016-04-23T10:56:19Z</time>
      </trkpt>
      <trkpt lat="45.6355" lon="4.05246">
        <ele>392</ele>
        <time>2016-04-23T10:56:40Z</time>
      </trkpt>
      <trkpt lat="45.63546" lon="4.05249">
        <ele>392</ele>
        <time>2016-04-23T10:56:44Z</time>
      </trkpt>
      <trkpt lat="45.63542" lon="4.05253">
        <ele>392</ele>
        <time>2016-04-23T10:56:48Z</time>
      </trkpt>
      <trkpt lat="45.63534" lon="4.05261">
        <ele>392</ele>
        <time>2016-04-23T10:56:56Z</time>
      </trkpt>
      <trkpt lat="45.6353" lon="4.05265">
        <ele>392</ele>
        <time>2016-04-23T10:57:00Z</time>
      </trkpt>
      <trkpt lat="45.63526" lon="4.0527">
        <ele>391</ele>
        <time>2016-04-23T10:57:05Z</time>
      </trkpt>
      <trkpt lat="45.63521" lon="4.05274">
        <ele>391</ele>
        <time>2016-04-23T10:57:09Z</time>
      </trkpt>
      <trkpt lat="45.63514" lon="4.05292">
        <ele>394</ele>
        <time>2016-04-23T10:57:23Z</time>
      </trkpt>
      <trkpt lat="45.63509" lon="4.05296">
        <ele>394</ele>
        <time>2016-04-23T10:57:28Z</time>
      </trkpt>
      <trkpt lat="45.6349" lon="4.05296">
        <ele>394</ele>
        <time>2016-04-23T10:57:44Z</time>
      </trkpt>
      <trkpt lat="45.63485" lon="4.05296">
        <ele>393</ele>
        <time>2016-04-23T10:57:49Z</time>
      </trkpt>
      <trkpt lat="45.63465" lon="4.05292">
        <ele>392</ele>
        <time>2016-04-23T10:58:06Z</time>
      </trkpt>
      <trkpt lat="45.6345" lon="4.05294">
        <ele>393</ele>
        <time>2016-04-23T10:58:19Z</time>
      </trkpt>
      <trkpt lat="45.63411" lon="4.05305">
        <ele>394</ele>
        <time>2016-04-23T10:58:54Z</time>
      </trkpt>
      <trkpt lat="45.63406" lon="4.05307">
        <ele>393</ele>
        <time>2016-04-23T10:58:58Z</time>
      </trkpt>
      <trkpt lat="45.63401" lon="4.0531">
        <ele>393</ele>
        <time>2016-04-23T10:59:02Z</time>
      </trkpt>
      <trkpt lat="45.63392" lon="4.05314">
        <ele>394</ele>
        <time>2016-04-23T10:59:11Z</time>
      </trkpt>
      <trkpt lat="45.63357" lon="4.05324">
        <ele>399</ele>
        <time>2016-04-23T10:59:41Z</time>
      </trkpt>
      <trkpt lat="45.63344" lon="4.05332">
        <ele>400</ele>
        <time>2016-04-23T10:59:53Z</time>
      </trkpt>
      <trkpt lat="45.63326" lon="4.05344">
        <ele>399</ele>
        <time>2016-04-23T11:00:10Z</time>
      </trkpt>
      <trkpt lat="45.63322" lon="4.05346">
        <ele>399</ele>
        <time>2016-04-23T11:00:14Z</time>
      </trkpt>
      <trkpt lat="45.63285" lon="4.0537">
        <ele>396</ele>
        <time>2016-04-23T11:00:49Z</time>
      </trkpt>
      <trkpt lat="45.63276" lon="4.05375">
        <ele>395</ele>
        <time>2016-04-23T11:00:58Z</time>
      </trkpt>
      <trkpt lat="45.63248" lon="4.05389">
        <ele>395</ele>
        <time>2016-04-23T11:01:22Z</time>
      </trkpt>
      <trkpt lat="45.63238" lon="4.05394">
        <ele>396</ele>
        <time>2016-04-23T11:01:31Z</time>
      </trkpt>
      <trkpt lat="45.63205" lon="4.05412">
        <ele>397</ele>
        <time>2016-04-23T11:02:02Z</time>
      </trkpt>
      <trkpt lat="45.63191" lon="4.05422">
        <ele>396</ele>
        <time>2016-04-23T11:02:15Z</time>
      </trkpt>
      <trkpt lat="45.63187" lon="4.05425">
        <ele>397</ele>
        <time>2016-04-23T11:02:19Z</time>
      </trkpt>
      <trkpt lat="45.6315" lon="4.0545">
        <ele>396</ele>
        <time>2016-04-23T11:02:53Z</time>
      </trkpt>
      <trkpt lat="45.63125" lon="4.05472">
        <ele>396</ele>
        <time>2016-04-23T11:03:18Z</time>
      </trkpt>
      <trkpt lat="45.63117" lon="4.05479">
        <ele>395</ele>
        <time>2016-04-23T11:03:26Z</time>
      </trkpt>
      <trkpt lat="45.63108" lon="4.05486">
        <ele>395</ele>
        <time>2016-04-23T11:03:35Z</time>
      </trkpt>
      <trkpt lat="45.63095" lon="4.05496">
        <ele>396</ele>
        <time>2016-04-23T11:03:47Z</time>
      </trkpt>
      <trkpt lat="45.63061" lon="4.05523">
        <ele>397</ele>
        <time>2016-04-23T11:04:19Z</time>
      </trkpt>
      <trkpt lat="45.63053" lon="4.0553">
        <ele>397</ele>
        <time>2016-04-23T11:04:29Z</time>
      </trkpt>
      <trkpt lat="45.63021" lon="4.05554">
        <ele>397</ele>
        <time>2016-04-23T11:04:59Z</time>
      </trkpt>
      <trkpt lat="45.63017" lon="4.05557">
        <ele>397</ele>
        <time>2016-04-23T11:05:03Z</time>
      </trkpt>
      <trkpt lat="45.63013" lon="4.05561">
        <ele>397</ele>
        <time>2016-04-23T11:05:07Z</time>
      </trkpt>
      <trkpt lat="45.62996" lon="4.05576">
        <ele>397</ele>
        <time>2016-04-23T11:05:23Z</time>
      </trkpt>
      <trkpt lat="45.62993" lon="4.05581">
        <ele>397</ele>
        <time>2016-04-23T11:05:27Z</time>
      </trkpt>
      <trkpt lat="45.62989" lon="4.05587">
        <ele>397</ele>
        <time>2016-04-23T11:05:32Z</time>
      </trkpt>
      <trkpt lat="45.62977" lon="4.056">
        <ele>397</ele>
        <time>2016-04-23T11:05:45Z</time>
      </trkpt>
      <trkpt lat="45.62945" lon="4.05638">
        <ele>402</ele>
        <time>2016-04-23T11:06:18Z</time>
      </trkpt>
      <trkpt lat="45.62933" lon="4.05648">
        <ele>404</ele>
        <time>2016-04-23T11:06:30Z</time>
      </trkpt>
      <trkpt lat="45.62916" lon="4.05664">
        <ele>402</ele>
        <time>2016-04-23T11:06:47Z</time>
      </trkpt>
      <trkpt lat="45.62912" lon="4.05668">
        <ele>401</ele>
        <time>2016-04-23T11:06:51Z</time>
      </trkpt>
      <trkpt lat="45.62899" lon="4.05678">
        <ele>401</ele>
        <time>2016-04-23T11:07:03Z</time>
      </trkpt>
      <trkpt lat="45.62894" lon="4.05681">
        <ele>401</ele>
        <time>2016-04-23T11:07:07Z</time>
      </trkpt>
      <trkpt lat="45.62859" lon="4.05707">
        <ele>400</ele>
        <time>2016-04-23T11:07:40Z</time>
      </trkpt>
      <trkpt lat="45.62822" lon="4.05731">
        <ele>401</ele>
        <time>2016-04-23T11:08:12Z</time>
      </trkpt>
      <trkpt lat="45.62818" lon="4.05734">
        <ele>402</ele>
        <time>2016-04-23T11:08:16Z</time>
      </trkpt>
      <trkpt lat="45.62795" lon="4.05747">
        <ele>402</ele>
        <time>2016-04-23T11:08:36Z</time>
      </trkpt>
      <trkpt lat="45.62757" lon="4.05769">
        <ele>399</ele>
        <time>2016-04-23T11:09:09Z</time>
      </trkpt>
      <trkpt lat="45.62752" lon="4.05772">
        <ele>399</ele>
        <time>2016-04-23T11:09:13Z</time>
      </trkpt>
      <trkpt lat="45.62724" lon="4.05785">
        <ele>399</ele>
        <time>2016-04-23T11:09:37Z</time>
      </trkpt>
      <trkpt lat="45.62714" lon="4.05788">
        <ele>399</ele>
        <time>2016-04-23T11:09:45Z</time>
      </trkpt>
      <trkpt lat="45.62694" lon="4.05794">
        <ele>399</ele>
        <time>2016-04-23T11:10:01Z</time>
      </trkpt>
      <trkpt lat="45.62668" lon="4.05797">
        <ele>400</ele>
        <time>2016-04-23T11:10:21Z</time>
      </trkpt>
      <trkpt lat="45.62638" lon="4.058">
        <ele>399</ele>
        <time>2016-04-23T11:10:45Z</time>
      </trkpt>
      <trkpt lat="45.62598" lon="4.05804">
        <ele>401</ele>
        <time>2016-04-23T11:11:18Z</time>
      </trkpt>
      <trkpt lat="45.62593" lon="4.05805">
        <ele>401</ele>
        <time>2016-04-23T11:11:22Z</time>
      </trkpt>
      <trkpt lat="45.62579" lon="4.0581">
        <ele>401</ele>
        <time>2016-04-23T11:11:34Z</time>
      </trkpt>
      <trkpt lat="45.62566" lon="4.05819">
        <ele>399</ele>
        <time>2016-04-23T11:11:46Z</time>
      </trkpt>
      <trkpt lat="45.62561" lon="4.05822">
        <ele>399</ele>
        <time>2016-04-23T11:11:50Z</time>
      </trkpt>
      <trkpt lat="45.62557" lon="4.05826">
        <ele>400</ele>
        <time>2016-04-23T11:11:54Z</time>
      </trkpt>
      <trkpt lat="45.62527" lon="4.0585">
        <ele>399</ele>
        <time>2016-04-23T11:12:24Z</time>
      </trkpt>
      <trkpt lat="45.62495" lon="4.05884">
        <ele>398</ele>
        <time>2016-04-23T11:12:58Z</time>
      </trkpt>
      <trkpt lat="45.62476" lon="4.05907">
        <ele>399</ele>
        <time>2016-04-23T11:13:18Z</time>
      </trkpt>
      <trkpt lat="45.62472" lon="4.05911">
        <ele>398</ele>
        <time>2016-04-23T11:13:22Z</time>
      </trkpt>
      <trkpt lat="45.62469" lon="4.05916">
        <ele>399</ele>
        <time>2016-04-23T11:13:26Z</time>
      </trkpt>
      <trkpt lat="45.62461" lon="4.05925">
        <ele>399</ele>
        <time>2016-04-23T11:13:35Z</time>
      </trkpt>
      <trkpt lat="45.62457" lon="4.05929">
        <ele>399</ele>
        <time>2016-04-23T11:13:40Z</time>
      </trkpt>
      <trkpt lat="45.62453" lon="4.05934">
        <ele>399</ele>
        <time>2016-04-23T11:13:53Z</time>
      </trkpt>
      <trkpt lat="45.6243" lon="4.05956">
        <ele>399</ele>
        <time>2016-04-23T11:14:12Z</time>
      </trkpt>
      <trkpt lat="45.62425" lon="4.05959">
        <ele>400</ele>
        <time>2016-04-23T11:14:16Z</time>
      </trkpt>
      <trkpt lat="45.62415" lon="4.05963">
        <ele>399</ele>
        <time>2016-04-23T11:14:24Z</time>
      </trkpt>
      <trkpt lat="45.62411" lon="4.05967">
        <ele>400</ele>
        <time>2016-04-23T11:14:28Z</time>
      </trkpt>
      <trkpt lat="45.62396" lon="4.05977">
        <ele>401</ele>
        <time>2016-04-23T11:14:40Z</time>
      </trkpt>
      <trkpt lat="45.62391" lon="4.05979">
        <ele>400</ele>
        <time>2016-04-23T11:14:44Z</time>
      </trkpt>
      <trkpt lat="45.6235" lon="4.05989">
        <ele>402</ele>
        <time>2016-04-23T11:15:17Z</time>
      </trkpt>
      <trkpt lat="45.62345" lon="4.05989">
        <ele>402</ele>
        <time>2016-04-23T11:15:21Z</time>
      </trkpt>
      <trkpt lat="45.62305" lon="4.05989">
        <ele>403</ele>
        <time>2016-04-23T11:15:55Z</time>
      </trkpt>
      <trkpt lat="45.62267" lon="4.0599">
        <ele>404</ele>
        <time>2016-04-23T11:16:27Z</time>
      </trkpt>
      <trkpt lat="45.62232" lon="4.05993">
        <ele>404</ele>
        <time>2016-04-23T11:16:57Z</time>
      </trkpt>
      <trkpt lat="45.62222" lon="4.05994">
        <ele>405</ele>
        <time>2016-04-23T11:17:07Z</time>
      </trkpt>
      <trkpt lat="45.62207" lon="4.05996">
        <ele>405</ele>
        <time>2016-04-23T11:17:19Z</time>
      </trkpt>
      <trkpt lat="45.62202" lon="4.05997">
        <ele>405</ele>
        <time>2016-04-23T11:17:23Z</time>
      </trkpt>
      <trkpt lat="45.62163" lon="4.06008">
        <ele>406</ele>
        <time>2016-04-23T11:17:57Z</time>
      </trkpt>
      <trkpt lat="45.62128" lon="4.06017">
        <ele>406</ele>
        <time>2016-04-23T11:18:28Z</time>
      </trkpt>
      <trkpt lat="45.62097" lon="4.06045">
        <ele>405</ele>
        <time>2016-04-23T11:19:01Z</time>
      </trkpt>
      <trkpt lat="45.62064" lon="4.06078">
        <ele>404</ele>
        <time>2016-04-23T11:19:34Z</time>
      </trkpt>
      <trkpt lat="45.62034" lon="4.06113">
        <ele>403</ele>
        <time>2016-04-23T11:20:06Z</time>
      </trkpt>
      <trkpt lat="45.6203" lon="4.06118">
        <ele>402</ele>
        <time>2016-04-23T11:20:11Z</time>
      </trkpt>
      <trkpt lat="45.61998" lon="4.06152">
        <ele>401</ele>
        <time>2016-04-23T11:20:44Z</time>
      </trkpt>
      <trkpt lat="45.61973" lon="4.06174">
        <ele>400</ele>
        <time>2016-04-23T11:21:08Z</time>
      </trkpt>
      <trkpt lat="45.61966" lon="4.06181">
        <ele>401</ele>
        <time>2016-04-23T11:21:16Z</time>
      </trkpt>
      <trkpt lat="45.61962" lon="4.06186">
        <ele>400</ele>
        <time>2016-04-23T11:21:20Z</time>
      </trkpt>
      <trkpt lat="45.61945" lon="4.06201">
        <ele>401</ele>
        <time>2016-04-23T11:21:37Z</time>
      </trkpt>
      <trkpt lat="45.61932" lon="4.06212">
        <ele>400</ele>
        <time>2016-04-23T11:21:50Z</time>
      </trkpt>
      <trkpt lat="45.61928" lon="4.06214">
        <ele>400</ele>
        <time>2016-04-23T11:21:54Z</time>
      </trkpt>
      <trkpt lat="45.6189" lon="4.06236">
        <ele>402</ele>
        <time>2016-04-23T11:22:27Z</time>
      </trkpt>
      <trkpt lat="45.61881" lon="4.06243">
        <ele>401</ele>
        <time>2016-04-23T11:22:36Z</time>
      </trkpt>
      <trkpt lat="45.61872" lon="4.06249">
        <ele>401</ele>
        <time>2016-04-23T11:22:44Z</time>
      </trkpt>
      <trkpt lat="45.61837" lon="4.06275">
        <ele>398</ele>
        <time>2016-04-23T11:23:16Z</time>
      </trkpt>
      <trkpt lat="45.61802" lon="4.06301">
        <ele>398</ele>
        <time>2016-04-23T11:23:48Z</time>
      </trkpt>
      <trkpt lat="45.61789" lon="4.06311">
        <ele>397</ele>
        <time>2016-04-23T11:24:00Z</time>
      </trkpt>
      <trkpt lat="45.6178" lon="4.06316">
        <ele>396</ele>
        <time>2016-04-23T11:24:08Z</time>
      </trkpt>
      <trkpt lat="45.61746" lon="4.06349">
        <ele>396</ele>
        <time>2016-04-23T11:24:41Z</time>
      </trkpt>
      <trkpt lat="45.61715" lon="4.06383">
        <ele>395</ele>
        <time>2016-04-23T11:25:13Z</time>
      </trkpt>
      <trkpt lat="45.61707" lon="4.0639">
        <ele>395</ele>
        <time>2016-04-23T11:25:21Z</time>
      </trkpt>
      <trkpt lat="45.61703" lon="4.06394">
        <ele>396</ele>
        <time>2016-04-23T11:25:25Z</time>
      </trkpt>
      <trkpt lat="45.61673" lon="4.06419">
        <ele>395</ele>
        <time>2016-04-23T11:25:55Z</time>
      </trkpt>
      <trkpt lat="45.61664" lon="4.06427">
        <ele>396</ele>
        <time>2016-04-23T11:26:03Z</time>
      </trkpt>
      <trkpt lat="45.61663" lon="4.06432">
        <ele>396</ele>
        <time>2016-04-23T11:26:12Z</time>
      </trkpt>
      <trkpt lat="45.61661" lon="4.06434">
        <ele>395</ele>
        <time>2016-04-23T11:26:29Z</time>
      </trkpt>
      <trkpt lat="45.61656" lon="4.06433">
        <ele>395</ele>
        <time>2016-04-23T11:26:33Z</time>
      </trkpt>
      <trkpt lat="45.61647" lon="4.06439">
        <ele>394</ele>
        <time>2016-04-23T11:26:42Z</time>
      </trkpt>
      <trkpt lat="45.61642" lon="4.06438">
        <ele>394</ele>
        <time>2016-04-23T11:26:46Z</time>
      </trkpt>
      <trkpt lat="45.61637" lon="4.06436">
        <ele>394</ele>
        <time>2016-04-23T11:26:49Z</time>
      </trkpt>
      <trkpt lat="45.61599" lon="4.06433">
        <ele>389</ele>
        <time>2016-04-23T11:27:21Z</time>
      </trkpt>
      <trkpt lat="45.61564" lon="4.06432">
        <ele>384</ele>
        <time>2016-04-23T11:27:50Z</time>
      </trkpt>
      <trkpt lat="45.61559" lon="4.0643">
        <ele>385</ele>
        <time>2016-04-23T11:27:54Z</time>
      </trkpt>
      <trkpt lat="45.61544" lon="4.06431">
        <ele>383</ele>
        <time>2016-04-23T11:28:07Z</time>
      </trkpt>
      <trkpt lat="45.61538" lon="4.0643">
        <ele>383</ele>
        <time>2016-04-23T11:28:12Z</time>
      </trkpt>
      <trkpt lat="45.61514" lon="4.06428">
        <ele>382</ele>
        <time>2016-04-23T11:28:35Z</time>
      </trkpt>
      <trkpt lat="45.61509" lon="4.06429">
        <ele>382</ele>
        <time>2016-04-23T11:28:39Z</time>
      </trkpt>
      <trkpt lat="45.61504" lon="4.06431">
        <ele>383</ele>
        <time>2016-04-23T11:28:43Z</time>
      </trkpt>
      <trkpt lat="45.61475" lon="4.06429">
        <ele>388</ele>
        <time>2016-04-23T11:29:10Z</time>
      </trkpt>
      <trkpt lat="45.61464" lon="4.06429">
        <ele>388</ele>
        <time>2016-04-23T11:29:19Z</time>
      </trkpt>
      <trkpt lat="45.61449" lon="4.06425">
        <ele>388</ele>
        <time>2016-04-23T11:29:32Z</time>
      </trkpt>
      <trkpt lat="45.61444" lon="4.06425">
        <ele>386</ele>
        <time>2016-04-23T11:29:35Z</time>
      </trkpt>
      <trkpt lat="45.6144" lon="4.06421">
        <ele>386</ele>
        <time>2016-04-23T11:29:40Z</time>
      </trkpt>
      <trkpt lat="45.61435" lon="4.06423">
        <ele>386</ele>
        <time>2016-04-23T11:29:44Z</time>
      </trkpt>
      <trkpt lat="45.6143" lon="4.06425">
        <ele>386</ele>
        <time>2016-04-23T11:29:48Z</time>
      </trkpt>
      <trkpt lat="45.6142" lon="4.06426">
        <ele>386</ele>
        <time>2016-04-23T11:29:57Z</time>
      </trkpt>
      <trkpt lat="45.61415" lon="4.06427">
        <ele>386</ele>
        <time>2016-04-23T11:30:01Z</time>
      </trkpt>
      <trkpt lat="45.61409" lon="4.06427">
        <ele>386</ele>
        <time>2016-04-23T11:30:06Z</time>
      </trkpt>
      <trkpt lat="45.614" lon="4.06427">
        <ele>386</ele>
        <time>2016-04-23T11:30:24Z</time>
      </trkpt>
      <trkpt lat="45.61379" lon="4.06427">
        <ele>381</ele>
        <time>2016-04-23T11:30:41Z</time>
      </trkpt>
      <trkpt lat="45.61365" lon="4.06424">
        <ele>384</ele>
        <time>2016-04-23T11:30:53Z</time>
      </trkpt>
      <trkpt lat="45.61361" lon="4.06419">
        <ele>384</ele>
        <time>2016-04-23T11:30:58Z</time>
      </trkpt>
      <trkpt lat="45.61357" lon="4.06418">
        <ele>384</ele>
        <time>2016-04-23T11:31:02Z</time>
      </trkpt>
      <trkpt lat="45.61351" lon="4.06422">
        <ele>384</ele>
        <time>2016-04-23T11:31:06Z</time>
      </trkpt>
      <trkpt lat="45.61346" lon="4.06419">
        <ele>384</ele>
        <time>2016-04-23T11:31:11Z</time>
      </trkpt>
      <trkpt lat="45.61342" lon="4.06422">
        <ele>383</ele>
        <time>2016-04-23T11:31:16Z</time>
      </trkpt>
      <trkpt lat="45.61324" lon="4.06435">
        <ele>388</ele>
        <time>2016-04-23T11:31:30Z</time>
      </trkpt>
      <trkpt lat="45.61304" lon="4.06437">
        <ele>388</ele>
        <time>2016-04-23T11:31:46Z</time>
      </trkpt>
      <trkpt lat="45.613" lon="4.06437">
        <ele>388</ele>
        <time>2016-04-23T11:31:51Z</time>
      </trkpt>
      <trkpt lat="45.61294" lon="4.06439">
        <ele>388</ele>
        <time>2016-04-23T11:31:56Z</time>
      </trkpt>
      <trkpt lat="45.61277" lon="4.06449">
        <ele>384</ele>
        <time>2016-04-23T11:32:15Z</time>
      </trkpt>
      <trkpt lat="45.61237" lon="4.06454">
        <ele>384</ele>
        <time>2016-04-23T11:32:47Z</time>
      </trkpt>
      <trkpt lat="45.61228" lon="4.06452">
        <ele>384</ele>
        <time>2016-04-23T11:32:55Z</time>
      </trkpt>
      <trkpt lat="45.61213" lon="4.06459">
        <ele>384</ele>
        <time>2016-04-23T11:33:07Z</time>
      </trkpt>
      <trkpt lat="45.61208" lon="4.06458">
        <ele>384</ele>
        <time>2016-04-23T11:33:10Z</time>
      </trkpt>
      <trkpt lat="45.61199" lon="4.06457">
        <ele>384</ele>
        <time>2016-04-23T11:33:19Z</time>
      </trkpt>
      <trkpt lat="45.61194" lon="4.06454">
        <ele>384</ele>
        <time>2016-04-23T11:33:23Z</time>
      </trkpt>
      <trkpt lat="45.61182" lon="4.06452">
        <ele>384</ele>
        <time>2016-04-23T11:33:31Z</time>
      </trkpt>
      <trkpt lat="45.61167" lon="4.06459">
        <ele>384</ele>
        <time>2016-04-23T11:33:52Z</time>
      </trkpt>
      <trkpt lat="45.61163" lon="4.06456">
        <ele>384</ele>
        <time>2016-04-23T11:33:59Z</time>
      </trkpt>
      <trkpt lat="45.61156" lon="4.06454">
        <ele>385</ele>
        <time>2016-04-23T11:34:05Z</time>
      </trkpt>
      <trkpt lat="45.61152" lon="4.06453">
        <ele>385</ele>
        <time>2016-04-23T11:34:09Z</time>
      </trkpt>
      <trkpt lat="45.61147" lon="4.06455">
        <ele>385</ele>
        <time>2016-04-23T11:34:14Z</time>
      </trkpt>
      <trkpt lat="45.61144" lon="4.06462">
        <ele>385</ele>
        <time>2016-04-23T11:34:19Z</time>
      </trkpt>
      <trkpt lat="45.61144" lon="4.06469">
        <ele>385</ele>
        <time>2016-04-23T11:34:23Z</time>
      </trkpt>
      <trkpt lat="45.6114" lon="4.06489">
        <ele>386</ele>
        <time>2016-04-23T11:34:38Z</time>
      </trkpt>
      <trkpt lat="45.61136" lon="4.06525">
        <ele>384</ele>
        <time>2016-04-23T11:35:02Z</time>
      </trkpt>
      <trkpt lat="45.61135" lon="4.06529">
        <ele>384</ele>
        <time>2016-04-23T11:35:09Z</time>
      </trkpt>
      <trkpt lat="45.6113" lon="4.06528">
        <ele>385</ele>
        <time>2016-04-23T11:35:20Z</time>
      </trkpt>
      <trkpt lat="45.61119" lon="4.06526">
        <ele>386</ele>
        <time>2016-04-23T11:35:27Z</time>
      </trkpt>
      <trkpt lat="45.61115" lon="4.0653">
        <ele>387</ele>
        <time>2016-04-23T11:35:31Z</time>
      </trkpt>
      <trkpt lat="45.61091" lon="4.06556">
        <ele>394</ele>
        <time>2016-04-23T11:36:03Z</time>
      </trkpt>
      <trkpt lat="45.61086" lon="4.06558">
        <ele>394</ele>
        <time>2016-04-23T11:36:07Z</time>
      </trkpt>
      <trkpt lat="45.61078" lon="4.06571">
        <ele>397</ele>
        <time>2016-04-23T11:36:24Z</time>
      </trkpt>
      <trkpt lat="45.61063" lon="4.06589">
        <ele>399</ele>
        <time>2016-04-23T11:36:39Z</time>
      </trkpt>
      <trkpt lat="45.61059" lon="4.06602">
        <ele>399</ele>
        <time>2016-04-23T11:36:48Z</time>
      </trkpt>
      <trkpt lat="45.61059" lon="4.0661">
        <ele>399</ele>
        <time>2016-04-23T11:36:52Z</time>
      </trkpt>
      <trkpt lat="45.61061" lon="4.06617">
        <ele>400</ele>
        <time>2016-04-23T11:36:56Z</time>
      </trkpt>
      <trkpt lat="45.6106" lon="4.06631">
        <ele>400</ele>
        <time>2016-04-23T11:37:03Z</time>
      </trkpt>
      <trkpt lat="45.61062" lon="4.06644">
        <ele>400</ele>
        <time>2016-04-23T11:37:12Z</time>
      </trkpt>
      <trkpt lat="45.61061" lon="4.06652">
        <ele>400</ele>
        <time>2016-04-23T11:37:16Z</time>
      </trkpt>
      <trkpt lat="45.6106" lon="4.06659">
        <ele>400</ele>
        <time>2016-04-23T11:37:20Z</time>
      </trkpt>
      <trkpt lat="45.61054" lon="4.06693">
        <ele>400</ele>
        <time>2016-04-23T11:37:41Z</time>
      </trkpt>
      <trkpt lat="45.61053" lon="4.06701">
        <ele>399</ele>
        <time>2016-04-23T11:37:45Z</time>
      </trkpt>
      <trkpt lat="45.61054" lon="4.06708">
        <ele>398</ele>
        <time>2016-04-23T11:37:50Z</time>
      </trkpt>
      <trkpt lat="45.61051" lon="4.06715">
        <ele>397</ele>
        <time>2016-04-23T11:37:54Z</time>
      </trkpt>
      <trkpt lat="45.61051" lon="4.06722">
        <ele>395</ele>
        <time>2016-04-23T11:37:58Z</time>
      </trkpt>
      <trkpt lat="45.61048" lon="4.06728">
        <ele>394</ele>
        <time>2016-04-23T11:38:02Z</time>
      </trkpt>
      <trkpt lat="45.61029" lon="4.0676">
        <ele>391</ele>
        <time>2016-04-23T11:38:29Z</time>
      </trkpt>
      <trkpt lat="45.61025" lon="4.06765">
        <ele>391</ele>
        <time>2016-04-23T11:38:33Z</time>
      </trkpt>
      <trkpt lat="45.61021" lon="4.0677">
        <ele>391</ele>
        <time>2016-04-23T11:38:38Z</time>
      </trkpt>
      <trkpt lat="45.61017" lon="4.06768">
        <ele>390</ele>
        <time>2016-04-23T11:38:44Z</time>
      </trkpt>
      <trkpt lat="45.61014" lon="4.06763">
        <ele>390</ele>
        <time>2016-04-23T11:38:48Z</time>
      </trkpt>
      <trkpt lat="45.61011" lon="4.06761">
        <ele>388</ele>
        <time>2016-04-23T11:38:55Z</time>
      </trkpt>
      <trkpt lat="45.61007" lon="4.06766">
        <ele>383</ele>
        <time>2016-04-23T11:39:06Z</time>
      </trkpt>
      <trkpt lat="45.61002" lon="4.06769">
        <ele>385</ele>
        <time>2016-04-23T11:39:10Z</time>
      </trkpt>
      <trkpt lat="45.60997" lon="4.06771">
        <ele>384</ele>
        <time>2016-04-23T11:39:14Z</time>
      </trkpt>
      <trkpt lat="45.60993" lon="4.06775">
        <ele>385</ele>
        <time>2016-04-23T11:39:18Z</time>
      </trkpt>
      <trkpt lat="45.60988" lon="4.06779">
        <ele>385</ele>
        <time>2016-04-23T11:39:22Z</time>
      </trkpt>
      <trkpt lat="45.60956" lon="4.06795">
        <ele>380</ele>
        <time>2016-04-23T11:39:55Z</time>
      </trkpt>
      <trkpt lat="45.6094" lon="4.06796">
        <ele>381</ele>
        <time>2016-04-23T11:40:10Z</time>
      </trkpt>
      <trkpt lat="45.60915" lon="4.06792">
        <ele>382</ele>
        <time>2016-04-23T11:40:34Z</time>
      </trkpt>
      <trkpt lat="45.6091" lon="4.06792">
        <ele>383</ele>
        <time>2016-04-23T11:40:39Z</time>
      </trkpt>
      <trkpt lat="45.60905" lon="4.06793">
        <ele>383</ele>
        <time>2016-04-23T11:40:44Z</time>
      </trkpt>
      <trkpt lat="45.60903" lon="4.06796">
        <ele>384</ele>
        <time>2016-04-23T11:40:55Z</time>
      </trkpt>
      <trkpt lat="45.60898" lon="4.06809">
        <ele>385</ele>
        <time>2016-04-23T11:41:04Z</time>
      </trkpt>
      <trkpt lat="45.60893" lon="4.0681">
        <ele>385</ele>
        <time>2016-04-23T11:41:09Z</time>
      </trkpt>
      <trkpt lat="45.60862" lon="4.06813">
        <ele>387</ele>
        <time>2016-04-23T11:41:45Z</time>
      </trkpt>
      <trkpt lat="45.60856" lon="4.06814">
        <ele>387</ele>
        <time>2016-04-23T11:41:53Z</time>
      </trkpt>
      <trkpt lat="45.60851" lon="4.06813">
        <ele>387</ele>
        <time>2016-04-23T11:41:58Z</time>
      </trkpt>
      <trkpt lat="45.60847" lon="4.0681">
        <ele>387</ele>
        <time>2016-04-23T11:42:02Z</time>
      </trkpt>
      <trkpt lat="45.60848" lon="4.06812">
        <ele>388</ele>
        <time>2016-04-23T11:42:18Z</time>
      </trkpt>
      <trkpt lat="45.60851" lon="4.06817">
        <ele>389</ele>
        <time>2016-04-23T11:42:26Z</time>
      </trkpt>
      <trkpt lat="45.60852" lon="4.06824">
        <ele>389</ele>
        <time>2016-04-23T11:42:37Z</time>
      </trkpt>
      <trkpt lat="45.6085" lon="4.0683">
        <ele>389</ele>
        <time>2016-04-23T11:42:47Z</time>
      </trkpt>
      <trkpt lat="45.60839" lon="4.06853">
        <ele>389</ele>
        <time>2016-04-23T11:43:03Z</time>
      </trkpt>
      <trkpt lat="45.60837" lon="4.06859">
        <ele>389</ele>
        <time>2016-04-23T11:43:07Z</time>
      </trkpt>
      <trkpt lat="45.60833" lon="4.06864">
        <ele>388</ele>
        <time>2016-04-23T11:43:11Z</time>
      </trkpt>
      <trkpt lat="45.60831" lon="4.06871">
        <ele>388</ele>
        <time>2016-04-23T11:43:15Z</time>
      </trkpt>
      <trkpt lat="45.60821" lon="4.06893">
        <ele>388</ele>
        <time>2016-04-23T11:43:32Z</time>
      </trkpt>
      <trkpt lat="45.60818" lon="4.06891">
        <ele>388</ele>
        <time>2016-04-23T11:46:03Z</time>
      </trkpt>
      <trkpt lat="45.60815" lon="4.06894">
        <ele>390</ele>
        <time>2016-04-23T11:48:46Z</time>
      </trkpt>
      <trkpt lat="45.60817" lon="4.06898">
        <ele>390</ele>
        <time>2016-04-23T11:49:05Z</time>
      </trkpt>
      <trkpt lat="45.60819" lon="4.06904">
        <ele>389</ele>
        <time>2016-04-23T11:49:21Z</time>
      </trkpt>
      <trkpt lat="45.60818" lon="4.0692">
        <ele>383</ele>
        <time>2016-04-23T11:49:29Z</time>
      </trkpt>
      <trkpt lat="45.60819" lon="4.06942">
        <ele>389</ele>
        <time>2016-04-23T11:49:49Z</time>
      </trkpt>
      <trkpt lat="45.60814" lon="4.06963">
        <ele>379</ele>
        <time>2016-04-23T11:50:01Z</time>
      </trkpt>
      <trkpt lat="45.60811" lon="4.06968">
        <ele>379</ele>
        <time>2016-04-23T11:50:06Z</time>
      </trkpt>
      <trkpt lat="45.60801" lon="4.06987">
        <ele>389</ele>
        <time>2016-04-23T11:50:20Z</time>
      </trkpt>
      <trkpt lat="45.60794" lon="4.07003">
        <ele>384</ele>
        <time>2016-04-23T11:50:32Z</time>
      </trkpt>
      <trkpt lat="45.6079" lon="4.07009">
        <ele>384</ele>
        <time>2016-04-23T11:50:37Z</time>
      </trkpt>
      <trkpt lat="45.60786" lon="4.07013">
        <ele>384</ele>
        <time>2016-04-23T11:50:41Z</time>
      </trkpt>
      <trkpt lat="45.60777" lon="4.0702">
        <ele>388</ele>
        <time>2016-04-23T11:50:50Z</time>
      </trkpt>
      <trkpt lat="45.60775" lon="4.07023">
        <ele>387</ele>
        <time>2016-04-23T11:50:56Z</time>
      </trkpt>
      <trkpt lat="45.60779" lon="4.07029">
        <ele>386</ele>
        <time>2016-04-23T11:51:41Z</time>
      </trkpt>
      <trkpt lat="45.60782" lon="4.07034">
        <ele>385</ele>
        <time>2016-04-23T11:51:47Z</time>
      </trkpt>
      <trkpt lat="45.60789" lon="4.07053">
        <ele>384</ele>
        <time>2016-04-23T11:51:59Z</time>
      </trkpt>
      <trkpt lat="45.60791" lon="4.0706">
        <ele>385</ele>
        <time>2016-04-23T11:52:04Z</time>
      </trkpt>
      <trkpt lat="45.60809" lon="4.0711">
        <ele>383</ele>
        <time>2016-04-23T11:52:36Z</time>
      </trkpt>
      <trkpt lat="45.60811" lon="4.07107">
        <ele>383</ele>
        <time>2016-04-23T11:53:12Z</time>
      </trkpt>
      <trkpt lat="45.60815" lon="4.0711">
        <ele>383</ele>
        <time>2016-04-23T11:53:18Z</time>
      </trkpt>
      <trkpt lat="45.60825" lon="4.07112">
        <ele>383</ele>
        <time>2016-04-23T11:53:27Z</time>
      </trkpt>
      <trkpt lat="45.6083" lon="4.07114">
        <ele>383</ele>
        <time>2016-04-23T11:53:31Z</time>
      </trkpt>
      <trkpt lat="45.60841" lon="4.07112">
        <ele>384</ele>
        <time>2016-04-23T11:53:42Z</time>
      </trkpt>
      <trkpt lat="45.60845" lon="4.07114">
        <ele>384</ele>
        <time>2016-04-23T11:53:46Z</time>
      </trkpt>
      <trkpt lat="45.60851" lon="4.07113">
        <ele>384</ele>
        <time>2016-04-23T11:53:52Z</time>
      </trkpt>
      <trkpt lat="45.60848" lon="4.07113">
        <ele>384</ele>
        <time>2016-04-23T11:54:12Z</time>
      </trkpt>
      <trkpt lat="45.6083" lon="4.0711">
        <ele>384</ele>
        <time>2016-04-23T11:54:32Z</time>
      </trkpt>
      <trkpt lat="45.60828" lon="4.07103">
        <ele>384</ele>
        <time>2016-04-23T11:54:41Z</time>
      </trkpt>
      <trkpt lat="45.60824" lon="4.07099">
        <ele>384</ele>
        <time>2016-04-23T11:54:45Z</time>
      </trkpt>
      <trkpt lat="45.60815" lon="4.07099">
        <ele>383</ele>
        <time>2016-04-23T11:54:55Z</time>
      </trkpt>
      <trkpt lat="45.6081" lon="4.07102">
        <ele>383</ele>
        <time>2016-04-23T11:55:00Z</time>
      </trkpt>
      <trkpt lat="45.60806" lon="4.07111">
        <ele>383</ele>
        <time>2016-04-23T11:55:18Z</time>
      </trkpt>
      <trkpt lat="45.60808" lon="4.07118">
        <ele>383</ele>
        <time>2016-04-23T11:55:22Z</time>
      </trkpt>
      <trkpt lat="45.60807" lon="4.07134">
        <ele>386</ele>
        <time>2016-04-23T11:55:32Z</time>
      </trkpt>
      <trkpt lat="45.60807" lon="4.07142">
        <ele>387</ele>
        <time>2016-04-23T11:55:37Z</time>
      </trkpt>
      <trkpt lat="45.60808" lon="4.07156">
        <ele>386</ele>
        <time>2016-04-23T11:55:46Z</time>
      </trkpt>
      <trkpt lat="45.60807" lon="4.07162">
        <ele>386</ele>
        <time>2016-04-23T11:55:50Z</time>
      </trkpt>
      <trkpt lat="45.60808" lon="4.07169">
        <ele>386</ele>
        <time>2016-04-23T11:55:54Z</time>
      </trkpt>
      <trkpt lat="45.60811" lon="4.0718">
        <ele>387</ele>
        <time>2016-04-23T11:56:07Z</time>
      </trkpt>
      <trkpt lat="45.60813" lon="4.07179">
        <ele>386</ele>
        <time>2016-04-23T11:56:35Z</time>
      </trkpt>
      <trkpt lat="45.60816" lon="4.07173">
        <ele>386</ele>
        <time>2016-04-23T11:56:57Z</time>
      </trkpt>
      <trkpt lat="45.60818" lon="4.07173">
        <ele>386</ele>
        <time>2016-04-23T11:57:09Z</time>
      </trkpt>
      <trkpt lat="45.60815" lon="4.07173">
        <ele>384</ele>
        <time>2016-04-23T12:07:55Z</time>
      </trkpt>
      <trkpt lat="45.60812" lon="4.07168">
        <ele>384</ele>
        <time>2016-04-23T12:08:02Z</time>
      </trkpt>
      <trkpt lat="45.60812" lon="4.0716">
        <ele>387</ele>
        <time>2016-04-23T12:08:08Z</time>
      </trkpt>
      <trkpt lat="45.60809" lon="4.07119">
        <ele>390</ele>
        <time>2016-04-23T12:08:40Z</time>
      </trkpt>
      <trkpt lat="45.60801" lon="4.07071">
        <ele>389</ele>
        <time>2016-04-23T12:09:13Z</time>
      </trkpt>
      <trkpt lat="45.60794" lon="4.07044">
        <ele>387</ele>
        <time>2016-04-23T12:09:32Z</time>
      </trkpt>
      <trkpt lat="45.60794" lon="4.07036">
        <ele>387</ele>
        <time>2016-04-23T12:09:37Z</time>
      </trkpt>
      <trkpt lat="45.60803" lon="4.06989">
        <ele>390</ele>
        <time>2016-04-23T12:10:10Z</time>
      </trkpt>
      <trkpt lat="45.60806" lon="4.06982">
        <ele>390</ele>
        <time>2016-04-23T12:10:15Z</time>
      </trkpt>
      <trkpt lat="45.60808" lon="4.06975">
        <ele>391</ele>
        <time>2016-04-23T12:10:20Z</time>
      </trkpt>
      <trkpt lat="45.60822" lon="4.06943">
        <ele>389</ele>
        <time>2016-04-23T12:10:44Z</time>
      </trkpt>
      <trkpt lat="45.60822" lon="4.0692">
        <ele>392</ele>
        <time>2016-04-23T12:10:58Z</time>
      </trkpt>
      <trkpt lat="45.60823" lon="4.06891">
        <ele>392</ele>
        <time>2016-04-23T12:11:16Z</time>
      </trkpt>
      <trkpt lat="45.60825" lon="4.06885">
        <ele>392</ele>
        <time>2016-04-23T12:11:20Z</time>
      </trkpt>
      <trkpt lat="45.60826" lon="4.06878">
        <ele>392</ele>
        <time>2016-04-23T12:11:25Z</time>
      </trkpt>
      <trkpt lat="45.60829" lon="4.06872">
        <ele>392</ele>
        <time>2016-04-23T12:11:30Z</time>
      </trkpt>
      <trkpt lat="45.60833" lon="4.06867">
        <ele>392</ele>
        <time>2016-04-23T12:11:34Z</time>
      </trkpt>
      <trkpt lat="45.6084" lon="4.06849">
        <ele>392</ele>
        <time>2016-04-23T12:11:47Z</time>
      </trkpt>
      <trkpt lat="45.6085" lon="4.06834">
        <ele>393</ele>
        <time>2016-04-23T12:11:59Z</time>
      </trkpt>
      <trkpt lat="45.60852" lon="4.06828">
        <ele>393</ele>
        <time>2016-04-23T12:12:04Z</time>
      </trkpt>
      <trkpt lat="45.60851" lon="4.06821">
        <ele>393</ele>
        <time>2016-04-23T12:12:09Z</time>
      </trkpt>
    </trkseg>
  </trk>
</gpx>